<?xml version="1.0" encoding="UTF-8" standalone="no" ?>
<gpx xmlns="http://www.topografix.com/GPX/1/1" xmlns:xsi="http://www.w3.org/2001/XMLSchema-instance" xsi:schemaLocation="http://www.topografix.com/GPX/1/1 http://www.topografix.com/GPX/1/1/gpx.xsd" version="1.1" creator="VisuGPX - https://www.visugpx.com">
  <metadata>
    <name>marignac Gery</name>
    <desc><![CDATA[retour par le lac de gery]]></desc>
  </metadata>
  <trk>
    <name><![CDATA[Boucle au départ de Marignac sur le GR10 - 44278 - UtagawaVTT.com]]></name>
    <trkseg>
      <trkpt lat="42.91175" lon="0.65953">
        <ele>522.82</ele>
        <time>2024-08-04T08:02:50Z</time>
      </trkpt>
      <trkpt lat="42.91178" lon="0.65964">
        <ele>522.827</ele>
        <time>2024-08-04T08:02:55Z</time>
      </trkpt>
      <trkpt lat="42.91174" lon="0.65961">
        <ele>523.347</ele>
        <time>2024-08-04T08:03:09Z</time>
      </trkpt>
      <trkpt lat="42.91179" lon="0.65954">
        <ele>522.211</ele>
        <time>2024-08-04T08:03:20Z</time>
      </trkpt>
      <trkpt lat="42.91166" lon="0.65951">
        <ele>524.579</ele>
        <time>2024-08-04T08:03:53Z</time>
      </trkpt>
      <trkpt lat="42.91175" lon="0.65955">
        <ele>522.794</ele>
        <time>2024-08-04T08:04:09Z</time>
      </trkpt>
      <trkpt lat="42.91182" lon="0.65949">
        <ele>521.715</ele>
        <time>2024-08-04T08:04:26Z</time>
      </trkpt>
      <trkpt lat="42.91183" lon="0.65936">
        <ele>521.017</ele>
        <time>2024-08-04T08:04:32Z</time>
      </trkpt>
      <trkpt lat="42.91175" lon="0.65921">
        <ele>521.104</ele>
        <time>2024-08-04T08:04:40Z</time>
      </trkpt>
      <trkpt lat="42.9113" lon="0.65913">
        <ele>531.272</ele>
        <time>2024-08-04T08:05:04Z</time>
      </trkpt>
      <trkpt lat="42.91112" lon="0.65922">
        <ele>537.462</ele>
        <time>2024-08-04T08:05:14Z</time>
      </trkpt>
      <trkpt lat="42.91099" lon="0.65944">
        <ele>541.663</ele>
        <time>2024-08-04T08:05:22Z</time>
      </trkpt>
      <trkpt lat="42.91097" lon="0.65982">
        <ele>541.542</ele>
        <time>2024-08-04T08:05:32Z</time>
      </trkpt>
      <trkpt lat="42.91085" lon="0.66017">
        <ele>545.607</ele>
        <time>2024-08-04T08:05:41Z</time>
      </trkpt>
      <trkpt lat="42.91081" lon="0.66063">
        <ele>548.052</ele>
        <time>2024-08-04T08:05:53Z</time>
      </trkpt>
      <trkpt lat="42.91072" lon="0.66075">
        <ele>550.422</ele>
        <time>2024-08-04T08:05:57Z</time>
      </trkpt>
      <trkpt lat="42.91057" lon="0.66074">
        <ele>553.205</ele>
        <time>2024-08-04T08:06:04Z</time>
      </trkpt>
      <trkpt lat="42.91053" lon="0.66069">
        <ele>553.678</ele>
        <time>2024-08-04T08:06:07Z</time>
      </trkpt>
      <trkpt lat="42.91055" lon="0.66067">
        <ele>553.01</ele>
        <time>2024-08-04T08:06:08Z</time>
      </trkpt>
      <trkpt lat="42.91055" lon="0.66049">
        <ele>551.935</ele>
        <time>2024-08-04T08:06:13Z</time>
      </trkpt>
      <trkpt lat="42.91062" lon="0.66026">
        <ele>550.25</ele>
        <time>2024-08-04T08:06:20Z</time>
      </trkpt>
      <trkpt lat="42.91061" lon="0.66017">
        <ele>550.348</ele>
        <time>2024-08-04T08:06:23Z</time>
      </trkpt>
      <trkpt lat="42.91067" lon="0.66006">
        <ele>548.913</ele>
        <time>2024-08-04T08:06:27Z</time>
      </trkpt>
      <trkpt lat="42.91067" lon="0.65981">
        <ele>548.745</ele>
        <time>2024-08-04T08:06:36Z</time>
      </trkpt>
      <trkpt lat="42.91047" lon="0.65974">
        <ele>554.243</ele>
        <time>2024-08-04T08:06:45Z</time>
      </trkpt>
      <trkpt lat="42.9104" lon="0.65979">
        <ele>555.501</ele>
        <time>2024-08-04T08:06:48Z</time>
      </trkpt>
      <trkpt lat="42.91021" lon="0.66015">
        <ele>559.939</ele>
        <time>2024-08-04T08:07:03Z</time>
      </trkpt>
      <trkpt lat="42.91063" lon="0.6609">
        <ele>553.066</ele>
        <time>2024-08-04T08:07:25Z</time>
      </trkpt>
      <trkpt lat="42.91045" lon="0.66104">
        <ele>557.434</ele>
        <time>2024-08-04T08:07:26Z</time>
      </trkpt>
      <trkpt lat="42.91044" lon="0.66122">
        <ele>558.254</ele>
        <time>2024-08-04T08:07:30Z</time>
      </trkpt>
      <trkpt lat="42.9103" lon="0.66153">
        <ele>563.578</ele>
        <time>2024-08-04T08:07:38Z</time>
      </trkpt>
      <trkpt lat="42.91028" lon="0.66207">
        <ele>565.864</ele>
        <time>2024-08-04T08:07:52Z</time>
      </trkpt>
      <trkpt lat="42.91019" lon="0.66245">
        <ele>569.196</ele>
        <time>2024-08-04T08:08:01Z</time>
      </trkpt>
      <trkpt lat="42.91008" lon="0.66274">
        <ele>569.831</ele>
        <time>2024-08-04T08:08:10Z</time>
      </trkpt>
      <trkpt lat="42.90991" lon="0.6629">
        <ele>576.648</ele>
        <time>2024-08-04T08:08:15Z</time>
      </trkpt>
      <trkpt lat="42.90977" lon="0.6631">
        <ele>580.679</ele>
        <time>2024-08-04T08:08:22Z</time>
      </trkpt>
      <trkpt lat="42.90973" lon="0.66326">
        <ele>578.649</ele>
        <time>2024-08-04T08:08:27Z</time>
      </trkpt>
      <trkpt lat="42.90975" lon="0.66335">
        <ele>575.083</ele>
        <time>2024-08-04T08:08:29Z</time>
      </trkpt>
      <trkpt lat="42.90968" lon="0.6636">
        <ele>570.967</ele>
        <time>2024-08-04T08:08:36Z</time>
      </trkpt>
      <trkpt lat="42.90936" lon="0.66393">
        <ele>575.451</ele>
        <time>2024-08-04T08:08:48Z</time>
      </trkpt>
      <trkpt lat="42.90916" lon="0.66405">
        <ele>578.159</ele>
        <time>2024-08-04T08:08:54Z</time>
      </trkpt>
      <trkpt lat="42.90865" lon="0.66407">
        <ele>577.414</ele>
        <time>2024-08-04T08:09:09Z</time>
      </trkpt>
      <trkpt lat="42.90863" lon="0.66401">
        <ele>580.319</ele>
        <time>2024-08-04T08:09:10Z</time>
      </trkpt>
      <trkpt lat="42.9082" lon="0.66393">
        <ele>585.204</ele>
        <time>2024-08-04T08:09:22Z</time>
      </trkpt>
      <trkpt lat="42.90807" lon="0.66402">
        <ele>583.471</ele>
        <time>2024-08-04T08:09:25Z</time>
      </trkpt>
      <trkpt lat="42.90794" lon="0.66403">
        <ele>585.785</ele>
        <time>2024-08-04T08:09:28Z</time>
      </trkpt>
      <trkpt lat="42.90756" lon="0.66421">
        <ele>585.021</ele>
        <time>2024-08-04T08:09:38Z</time>
      </trkpt>
      <trkpt lat="42.90721" lon="0.66431">
        <ele>587.111</ele>
        <time>2024-08-04T08:09:51Z</time>
      </trkpt>
      <trkpt lat="42.90716" lon="0.66428">
        <ele>587.629</ele>
        <time>2024-08-04T08:10:05Z</time>
      </trkpt>
      <trkpt lat="42.90707" lon="0.66436">
        <ele>587.617</ele>
        <time>2024-08-04T08:10:31Z</time>
      </trkpt>
      <trkpt lat="42.90688" lon="0.66426">
        <ele>589.102</ele>
        <time>2024-08-04T08:10:36Z</time>
      </trkpt>
      <trkpt lat="42.90657" lon="0.66384">
        <ele>603.935</ele>
        <time>2024-08-04T08:10:52Z</time>
      </trkpt>
      <trkpt lat="42.90652" lon="0.6639">
        <ele>601.898</ele>
        <time>2024-08-04T08:10:57Z</time>
      </trkpt>
      <trkpt lat="42.90638" lon="0.66377">
        <ele>604.302</ele>
        <time>2024-08-04T08:11:11Z</time>
      </trkpt>
      <trkpt lat="42.90623" lon="0.66377">
        <ele>604.271</ele>
        <time>2024-08-04T08:11:18Z</time>
      </trkpt>
      <trkpt lat="42.90616" lon="0.66383">
        <ele>603.591</ele>
        <time>2024-08-04T08:11:21Z</time>
      </trkpt>
      <trkpt lat="42.90613" lon="0.66393">
        <ele>602.767</ele>
        <time>2024-08-04T08:11:25Z</time>
      </trkpt>
      <trkpt lat="42.90623" lon="0.66396">
        <ele>601.824</ele>
        <time>2024-08-04T08:11:44Z</time>
      </trkpt>
      <trkpt lat="42.90588" lon="0.66395">
        <ele>604.804</ele>
        <time>2024-08-04T08:11:55Z</time>
      </trkpt>
      <trkpt lat="42.90551" lon="0.66412">
        <ele>606.874</ele>
        <time>2024-08-04T08:12:09Z</time>
      </trkpt>
      <trkpt lat="42.9054" lon="0.6641">
        <ele>608.781</ele>
        <time>2024-08-04T08:12:13Z</time>
      </trkpt>
      <trkpt lat="42.90495" lon="0.66423">
        <ele>612.021</ele>
        <time>2024-08-04T08:12:28Z</time>
      </trkpt>
      <trkpt lat="42.90431" lon="0.66426">
        <ele>615.332</ele>
        <time>2024-08-04T08:12:49Z</time>
      </trkpt>
      <trkpt lat="42.90418" lon="0.66421">
        <ele>618.042</ele>
        <time>2024-08-04T08:12:52Z</time>
      </trkpt>
      <trkpt lat="42.90391" lon="0.66449">
        <ele>622.36</ele>
        <time>2024-08-04T08:13:07Z</time>
      </trkpt>
      <trkpt lat="42.90334" lon="0.66477">
        <ele>631.937</ele>
        <time>2024-08-04T08:13:32Z</time>
      </trkpt>
      <trkpt lat="42.90293" lon="0.66488">
        <ele>629.522</ele>
        <time>2024-08-04T08:13:53Z</time>
      </trkpt>
      <trkpt lat="42.90278" lon="0.66504">
        <ele>629.598</ele>
        <time>2024-08-04T08:14:01Z</time>
      </trkpt>
      <trkpt lat="42.90265" lon="0.66508">
        <ele>630.909</ele>
        <time>2024-08-04T08:14:05Z</time>
      </trkpt>
      <trkpt lat="42.90253" lon="0.66536">
        <ele>638.634</ele>
        <time>2024-08-04T08:14:13Z</time>
      </trkpt>
      <trkpt lat="42.90238" lon="0.66546">
        <ele>639.858</ele>
        <time>2024-08-04T08:14:20Z</time>
      </trkpt>
      <trkpt lat="42.902" lon="0.66535">
        <ele>639.721</ele>
        <time>2024-08-04T08:14:34Z</time>
      </trkpt>
      <trkpt lat="42.90165" lon="0.66507">
        <ele>640.141</ele>
        <time>2024-08-04T08:14:53Z</time>
      </trkpt>
      <trkpt lat="42.90141" lon="0.66504">
        <ele>641.852</ele>
        <time>2024-08-04T08:15:05Z</time>
      </trkpt>
      <trkpt lat="42.90132" lon="0.66495">
        <ele>643.658</ele>
        <time>2024-08-04T08:15:20Z</time>
      </trkpt>
      <trkpt lat="42.90117" lon="0.66497">
        <ele>644.532</ele>
        <time>2024-08-04T08:15:27Z</time>
      </trkpt>
      <trkpt lat="42.9009" lon="0.66485">
        <ele>650.76</ele>
        <time>2024-08-04T08:15:40Z</time>
      </trkpt>
      <trkpt lat="42.90089" lon="0.66472">
        <ele>653.836</ele>
        <time>2024-08-04T08:16:05Z</time>
      </trkpt>
      <trkpt lat="42.90092" lon="0.66468">
        <ele>653.854</ele>
        <time>2024-08-04T08:16:14Z</time>
      </trkpt>
      <trkpt lat="42.90088" lon="0.66466">
        <ele>655.34</ele>
        <time>2024-08-04T08:16:40Z</time>
      </trkpt>
      <trkpt lat="42.90091" lon="0.66471">
        <ele>653.723</ele>
        <time>2024-08-04T08:16:46Z</time>
      </trkpt>
      <trkpt lat="42.90106" lon="0.66436">
        <ele>658.198</ele>
        <time>2024-08-04T08:17:08Z</time>
      </trkpt>
      <trkpt lat="42.90114" lon="0.66436">
        <ele>657.115</ele>
        <time>2024-08-04T08:17:10Z</time>
      </trkpt>
      <trkpt lat="42.90142" lon="0.66414">
        <ele>661.797</ele>
        <time>2024-08-04T08:17:20Z</time>
      </trkpt>
      <trkpt lat="42.90162" lon="0.66412">
        <ele>660.34</ele>
        <time>2024-08-04T08:17:27Z</time>
      </trkpt>
      <trkpt lat="42.90194" lon="0.66381">
        <ele>668.379</ele>
        <time>2024-08-04T08:17:41Z</time>
      </trkpt>
      <trkpt lat="42.90202" lon="0.66358">
        <ele>673.958</ele>
        <time>2024-08-04T08:17:48Z</time>
      </trkpt>
      <trkpt lat="42.9022" lon="0.66336">
        <ele>679.61</ele>
        <time>2024-08-04T08:17:56Z</time>
      </trkpt>
      <trkpt lat="42.90289" lon="0.66355">
        <ele>670.355</ele>
        <time>2024-08-04T08:18:20Z</time>
      </trkpt>
      <trkpt lat="42.90309" lon="0.66349">
        <ele>670.519</ele>
        <time>2024-08-04T08:18:29Z</time>
      </trkpt>
      <trkpt lat="42.90315" lon="0.66339">
        <ele>674.935</ele>
        <time>2024-08-04T08:18:32Z</time>
      </trkpt>
      <trkpt lat="42.90328" lon="0.66333">
        <ele>677.064</ele>
        <time>2024-08-04T08:18:38Z</time>
      </trkpt>
      <trkpt lat="42.90371" lon="0.66283">
        <ele>694.069</ele>
        <time>2024-08-04T08:18:57Z</time>
      </trkpt>
      <trkpt lat="42.90394" lon="0.66277">
        <ele>691.868</ele>
        <time>2024-08-04T08:19:05Z</time>
      </trkpt>
      <trkpt lat="42.90449" lon="0.66237">
        <ele>703.844</ele>
        <time>2024-08-04T08:19:32Z</time>
      </trkpt>
      <trkpt lat="42.90467" lon="0.66235">
        <ele>701.491</ele>
        <time>2024-08-04T08:19:40Z</time>
      </trkpt>
      <trkpt lat="42.90481" lon="0.66226">
        <ele>703.187</ele>
        <time>2024-08-04T08:19:46Z</time>
      </trkpt>
      <trkpt lat="42.90511" lon="0.66188">
        <ele>714.456</ele>
        <time>2024-08-04T08:19:59Z</time>
      </trkpt>
      <trkpt lat="42.90537" lon="0.66178">
        <ele>713.718</ele>
        <time>2024-08-04T08:20:11Z</time>
      </trkpt>
      <trkpt lat="42.90541" lon="0.66171">
        <ele>715.665</ele>
        <time>2024-08-04T08:20:14Z</time>
      </trkpt>
      <trkpt lat="42.90574" lon="0.6616">
        <ele>712.909</ele>
        <time>2024-08-04T08:20:29Z</time>
      </trkpt>
      <trkpt lat="42.90591" lon="0.66143">
        <ele>713.419</ele>
        <time>2024-08-04T08:20:39Z</time>
      </trkpt>
      <trkpt lat="42.90601" lon="0.6611">
        <ele>716.042</ele>
        <time>2024-08-04T08:20:51Z</time>
      </trkpt>
      <trkpt lat="42.906" lon="0.66102">
        <ele>717.361</ele>
        <time>2024-08-04T08:20:54Z</time>
      </trkpt>
      <trkpt lat="42.9061" lon="0.66066">
        <ele>716.389</ele>
        <time>2024-08-04T08:21:05Z</time>
      </trkpt>
      <trkpt lat="42.90609" lon="0.66025">
        <ele>717.26</ele>
        <time>2024-08-04T08:21:17Z</time>
      </trkpt>
      <trkpt lat="42.90603" lon="0.65994">
        <ele>719.952</ele>
        <time>2024-08-04T08:21:28Z</time>
      </trkpt>
      <trkpt lat="42.90597" lon="0.65984">
        <ele>722.39</ele>
        <time>2024-08-04T08:21:34Z</time>
      </trkpt>
      <trkpt lat="42.90594" lon="0.65946">
        <ele>723.268</ele>
        <time>2024-08-04T08:21:43Z</time>
      </trkpt>
      <trkpt lat="42.90603" lon="0.6592">
        <ele>722.927</ele>
        <time>2024-08-04T08:21:50Z</time>
      </trkpt>
      <trkpt lat="42.90609" lon="0.65869">
        <ele>727.9</ele>
        <time>2024-08-04T08:22:04Z</time>
      </trkpt>
      <trkpt lat="42.90609" lon="0.65844">
        <ele>731.923</ele>
        <time>2024-08-04T08:22:10Z</time>
      </trkpt>
      <trkpt lat="42.90594" lon="0.65833">
        <ele>737.67</ele>
        <time>2024-08-04T08:22:18Z</time>
      </trkpt>
      <trkpt lat="42.90582" lon="0.65837">
        <ele>740.653</ele>
        <time>2024-08-04T08:22:23Z</time>
      </trkpt>
      <trkpt lat="42.90561" lon="0.65863">
        <ele>743.107</ele>
        <time>2024-08-04T08:22:36Z</time>
      </trkpt>
      <trkpt lat="42.90542" lon="0.65914">
        <ele>744.341</ele>
        <time>2024-08-04T08:22:51Z</time>
      </trkpt>
      <trkpt lat="42.9053" lon="0.65978">
        <ele>749.79</ele>
        <time>2024-08-04T08:23:07Z</time>
      </trkpt>
      <trkpt lat="42.9053" lon="0.6601">
        <ele>751.61</ele>
        <time>2024-08-04T08:23:15Z</time>
      </trkpt>
      <trkpt lat="42.90526" lon="0.66021">
        <ele>753.728</ele>
        <time>2024-08-04T08:23:18Z</time>
      </trkpt>
      <trkpt lat="42.90528" lon="0.66046">
        <ele>752.71</ele>
        <time>2024-08-04T08:23:24Z</time>
      </trkpt>
      <trkpt lat="42.90502" lon="0.66089">
        <ele>757.71</ele>
        <time>2024-08-04T08:23:37Z</time>
      </trkpt>
      <trkpt lat="42.90451" lon="0.66112">
        <ele>765.575</ele>
        <time>2024-08-04T08:23:54Z</time>
      </trkpt>
      <trkpt lat="42.90403" lon="0.66118">
        <ele>769.822</ele>
        <time>2024-08-04T08:24:11Z</time>
      </trkpt>
      <trkpt lat="42.90345" lon="0.66108">
        <ele>777.843</ele>
        <time>2024-08-04T08:24:32Z</time>
      </trkpt>
      <trkpt lat="42.90318" lon="0.66122">
        <ele>775.712</ele>
        <time>2024-08-04T08:24:42Z</time>
      </trkpt>
      <trkpt lat="42.90288" lon="0.66115">
        <ele>777.484</ele>
        <time>2024-08-04T08:24:52Z</time>
      </trkpt>
      <trkpt lat="42.90274" lon="0.66099">
        <ele>781.123</ele>
        <time>2024-08-04T08:24:58Z</time>
      </trkpt>
      <trkpt lat="42.90269" lon="0.66101">
        <ele>778.473</ele>
        <time>2024-08-04T08:25:00Z</time>
      </trkpt>
      <trkpt lat="42.90263" lon="0.66097">
        <ele>777.98</ele>
        <time>2024-08-04T08:25:03Z</time>
      </trkpt>
      <trkpt lat="42.90242" lon="0.65994">
        <ele>801.047</ele>
        <time>2024-08-04T08:25:25Z</time>
      </trkpt>
      <trkpt lat="42.9023" lon="0.65976">
        <ele>800.978</ele>
        <time>2024-08-04T08:25:31Z</time>
      </trkpt>
      <trkpt lat="42.9022" lon="0.65947">
        <ele>806.458</ele>
        <time>2024-08-04T08:25:40Z</time>
      </trkpt>
      <trkpt lat="42.90211" lon="0.65935">
        <ele>809.078</ele>
        <time>2024-08-04T08:25:45Z</time>
      </trkpt>
      <trkpt lat="42.90203" lon="0.65951">
        <ele>801.234</ele>
        <time>2024-08-04T08:25:47Z</time>
      </trkpt>
      <trkpt lat="42.90186" lon="0.65962">
        <ele>795.696</ele>
        <time>2024-08-04T08:25:54Z</time>
      </trkpt>
      <trkpt lat="42.90144" lon="0.65958">
        <ele>801.281</ele>
        <time>2024-08-04T08:26:10Z</time>
      </trkpt>
      <trkpt lat="42.9011" lon="0.65946">
        <ele>810.348</ele>
        <time>2024-08-04T08:26:25Z</time>
      </trkpt>
      <trkpt lat="42.90023" lon="0.65941">
        <ele>821.329</ele>
        <time>2024-08-04T08:26:56Z</time>
      </trkpt>
      <trkpt lat="42.9" lon="0.65934">
        <ele>826.535</ele>
        <time>2024-08-04T08:27:05Z</time>
      </trkpt>
      <trkpt lat="42.89977" lon="0.65938">
        <ele>829.336</ele>
        <time>2024-08-04T08:27:15Z</time>
      </trkpt>
      <trkpt lat="42.89926" lon="0.65983">
        <ele>830.112</ele>
        <time>2024-08-04T08:27:38Z</time>
      </trkpt>
      <trkpt lat="42.89917" lon="0.66014">
        <ele>823.007</ele>
        <time>2024-08-04T08:27:48Z</time>
      </trkpt>
      <trkpt lat="42.89905" lon="0.66019">
        <ele>821.975</ele>
        <time>2024-08-04T08:27:53Z</time>
      </trkpt>
      <trkpt lat="42.89874" lon="0.65989">
        <ele>836.648</ele>
        <time>2024-08-04T08:28:07Z</time>
      </trkpt>
      <trkpt lat="42.89835" lon="0.65978">
        <ele>837.463</ele>
        <time>2024-08-04T08:28:24Z</time>
      </trkpt>
      <trkpt lat="42.89824" lon="0.65954">
        <ele>848.086</ele>
        <time>2024-08-04T08:28:31Z</time>
      </trkpt>
      <trkpt lat="42.89814" lon="0.65949">
        <ele>851.625</ele>
        <time>2024-08-04T08:28:35Z</time>
      </trkpt>
      <trkpt lat="42.89801" lon="0.65965">
        <ele>847.361</ele>
        <time>2024-08-04T08:28:45Z</time>
      </trkpt>
      <trkpt lat="42.89768" lon="0.65959">
        <ele>858.554</ele>
        <time>2024-08-04T08:29:00Z</time>
      </trkpt>
      <trkpt lat="42.89764" lon="0.65963">
        <ele>858.922</ele>
        <time>2024-08-04T08:29:02Z</time>
      </trkpt>
      <trkpt lat="42.89763" lon="0.65996">
        <ele>853.382</ele>
        <time>2024-08-04T08:29:11Z</time>
      </trkpt>
      <trkpt lat="42.89753" lon="0.66005">
        <ele>856.687</ele>
        <time>2024-08-04T08:29:14Z</time>
      </trkpt>
      <trkpt lat="42.89704" lon="0.66097">
        <ele>865.277</ele>
        <time>2024-08-04T08:29:46Z</time>
      </trkpt>
      <trkpt lat="42.89684" lon="0.66122">
        <ele>868.735</ele>
        <time>2024-08-04T08:29:57Z</time>
      </trkpt>
      <trkpt lat="42.89634" lon="0.66153">
        <ele>874.677</ele>
        <time>2024-08-04T08:30:19Z</time>
      </trkpt>
      <trkpt lat="42.89596" lon="0.66159">
        <ele>880.376</ele>
        <time>2024-08-04T08:30:34Z</time>
      </trkpt>
      <trkpt lat="42.89581" lon="0.66167">
        <ele>880.567</ele>
        <time>2024-08-04T08:30:39Z</time>
      </trkpt>
      <trkpt lat="42.8951" lon="0.66181">
        <ele>894.105</ele>
        <time>2024-08-04T08:31:09Z</time>
      </trkpt>
      <trkpt lat="42.89503" lon="0.66195">
        <ele>891.667</ele>
        <time>2024-08-04T08:31:15Z</time>
      </trkpt>
      <trkpt lat="42.8946" lon="0.66238">
        <ele>899.605</ele>
        <time>2024-08-04T08:31:37Z</time>
      </trkpt>
      <trkpt lat="42.89458" lon="0.66258">
        <ele>895.864</ele>
        <time>2024-08-04T08:31:44Z</time>
      </trkpt>
      <trkpt lat="42.89434" lon="0.66273">
        <ele>898.599</ele>
        <time>2024-08-04T08:31:55Z</time>
      </trkpt>
      <trkpt lat="42.89417" lon="0.66271">
        <ele>895.778</ele>
        <time>2024-08-04T08:32:08Z</time>
      </trkpt>
      <trkpt lat="42.8942" lon="0.6627">
        <ele>897.31</ele>
        <time>2024-08-04T08:32:27Z</time>
      </trkpt>
      <trkpt lat="42.89394" lon="0.66226">
        <ele>902.14</ele>
        <time>2024-08-04T08:32:51Z</time>
      </trkpt>
      <trkpt lat="42.89383" lon="0.66225">
        <ele>898.763</ele>
        <time>2024-08-04T08:32:56Z</time>
      </trkpt>
      <trkpt lat="42.89364" lon="0.6619">
        <ele>908.042</ele>
        <time>2024-08-04T08:33:08Z</time>
      </trkpt>
      <trkpt lat="42.89335" lon="0.66173">
        <ele>908.717</ele>
        <time>2024-08-04T08:33:26Z</time>
      </trkpt>
      <trkpt lat="42.89329" lon="0.66208">
        <ele>902.37</ele>
        <time>2024-08-04T08:33:43Z</time>
      </trkpt>
      <trkpt lat="42.89312" lon="0.66221">
        <ele>910.466</ele>
        <time>2024-08-04T08:33:52Z</time>
      </trkpt>
      <trkpt lat="42.89306" lon="0.6626">
        <ele>905.682</ele>
        <time>2024-08-04T08:34:04Z</time>
      </trkpt>
      <trkpt lat="42.89263" lon="0.66302">
        <ele>922.147</ele>
        <time>2024-08-04T08:34:22Z</time>
      </trkpt>
      <trkpt lat="42.89245" lon="0.66309">
        <ele>926.782</ele>
        <time>2024-08-04T08:34:29Z</time>
      </trkpt>
      <trkpt lat="42.89204" lon="0.66288">
        <ele>938.298</ele>
        <time>2024-08-04T08:34:45Z</time>
      </trkpt>
      <trkpt lat="42.89165" lon="0.66296">
        <ele>933.568</ele>
        <time>2024-08-04T08:35:03Z</time>
      </trkpt>
      <trkpt lat="42.89158" lon="0.6629">
        <ele>936.453</ele>
        <time>2024-08-04T08:35:06Z</time>
      </trkpt>
      <trkpt lat="42.89121" lon="0.66284">
        <ele>943.207</ele>
        <time>2024-08-04T08:35:19Z</time>
      </trkpt>
      <trkpt lat="42.89079" lon="0.66304">
        <ele>950.466</ele>
        <time>2024-08-04T08:35:34Z</time>
      </trkpt>
      <trkpt lat="42.89064" lon="0.6632">
        <ele>949.675</ele>
        <time>2024-08-04T08:35:41Z</time>
      </trkpt>
      <trkpt lat="42.8903" lon="0.66323">
        <ele>952.27</ele>
        <time>2024-08-04T08:35:53Z</time>
      </trkpt>
      <trkpt lat="42.88977" lon="0.66304">
        <ele>955.096</ele>
        <time>2024-08-04T08:36:12Z</time>
      </trkpt>
      <trkpt lat="42.88932" lon="0.66278">
        <ele>957.091</ele>
        <time>2024-08-04T08:36:29Z</time>
      </trkpt>
      <trkpt lat="42.88902" lon="0.66233">
        <ele>967.001</ele>
        <time>2024-08-04T08:36:44Z</time>
      </trkpt>
      <trkpt lat="42.88865" lon="0.66213">
        <ele>969.529</ele>
        <time>2024-08-04T08:36:57Z</time>
      </trkpt>
      <trkpt lat="42.88853" lon="0.662">
        <ele>973.967</ele>
        <time>2024-08-04T08:37:02Z</time>
      </trkpt>
      <trkpt lat="42.88829" lon="0.66199">
        <ele>973.615</ele>
        <time>2024-08-04T08:37:12Z</time>
      </trkpt>
      <trkpt lat="42.88817" lon="0.66206">
        <ele>970.045</ele>
        <time>2024-08-04T08:37:17Z</time>
      </trkpt>
      <trkpt lat="42.88766" lon="0.66189">
        <ele>985.258</ele>
        <time>2024-08-04T08:37:37Z</time>
      </trkpt>
      <trkpt lat="42.8876" lon="0.66203">
        <ele>983.685</ele>
        <time>2024-08-04T08:37:41Z</time>
      </trkpt>
      <trkpt lat="42.8876" lon="0.66221">
        <ele>980.332</ele>
        <time>2024-08-04T08:37:46Z</time>
      </trkpt>
      <trkpt lat="42.88747" lon="0.66246">
        <ele>986.782</ele>
        <time>2024-08-04T08:37:54Z</time>
      </trkpt>
      <trkpt lat="42.88747" lon="0.66283">
        <ele>986.38</ele>
        <time>2024-08-04T08:38:03Z</time>
      </trkpt>
      <trkpt lat="42.88739" lon="0.663">
        <ele>991.838</ele>
        <time>2024-08-04T08:38:07Z</time>
      </trkpt>
      <trkpt lat="42.88745" lon="0.66372">
        <ele>977.84</ele>
        <time>2024-08-04T08:38:22Z</time>
      </trkpt>
      <trkpt lat="42.8874" lon="0.66382">
        <ele>976.314</ele>
        <time>2024-08-04T08:38:25Z</time>
      </trkpt>
      <trkpt lat="42.88727" lon="0.66385">
        <ele>978.975</ele>
        <time>2024-08-04T08:38:29Z</time>
      </trkpt>
      <trkpt lat="42.88675" lon="0.6636">
        <ele>1002.876</ele>
        <time>2024-08-04T08:38:44Z</time>
      </trkpt>
      <trkpt lat="42.88588" lon="0.66339">
        <ele>1009.319</ele>
        <time>2024-08-04T08:39:04Z</time>
      </trkpt>
      <trkpt lat="42.88556" lon="0.66339">
        <ele>1006.559</ele>
        <time>2024-08-04T08:39:12Z</time>
      </trkpt>
      <trkpt lat="42.88494" lon="0.66356">
        <ele>998.625</ele>
        <time>2024-08-04T08:39:24Z</time>
      </trkpt>
      <trkpt lat="42.88453" lon="0.66377">
        <ele>994.529</ele>
        <time>2024-08-04T08:39:31Z</time>
      </trkpt>
      <trkpt lat="42.88439" lon="0.6639">
        <ele>992.876</ele>
        <time>2024-08-04T08:39:34Z</time>
      </trkpt>
      <trkpt lat="42.88421" lon="0.66418">
        <ele>986.948</ele>
        <time>2024-08-04T08:39:39Z</time>
      </trkpt>
      <trkpt lat="42.88401" lon="0.66427">
        <ele>984.234</ele>
        <time>2024-08-04T08:39:43Z</time>
      </trkpt>
      <trkpt lat="42.8838" lon="0.6645">
        <ele>978.209</ele>
        <time>2024-08-04T08:39:47Z</time>
      </trkpt>
      <trkpt lat="42.88359" lon="0.66453">
        <ele>978.071</ele>
        <time>2024-08-04T08:39:50Z</time>
      </trkpt>
      <trkpt lat="42.88338" lon="0.66445">
        <ele>984.123</ele>
        <time>2024-08-04T08:39:54Z</time>
      </trkpt>
      <trkpt lat="42.88329" lon="0.66449">
        <ele>986.624</ele>
        <time>2024-08-04T08:39:56Z</time>
      </trkpt>
      <trkpt lat="42.88318" lon="0.66463">
        <ele>989.016</ele>
        <time>2024-08-04T08:40:00Z</time>
      </trkpt>
      <trkpt lat="42.88318" lon="0.66499">
        <ele>986.716</ele>
        <time>2024-08-04T08:40:08Z</time>
      </trkpt>
      <trkpt lat="42.88303" lon="0.66524">
        <ele>983.62</ele>
        <time>2024-08-04T08:40:15Z</time>
      </trkpt>
      <trkpt lat="42.88296" lon="0.66526">
        <ele>984.441</ele>
        <time>2024-08-04T08:40:17Z</time>
      </trkpt>
      <trkpt lat="42.88248" lon="0.66515">
        <ele>1000.909</ele>
        <time>2024-08-04T08:40:30Z</time>
      </trkpt>
      <trkpt lat="42.88214" lon="0.66519">
        <ele>1004.82</ele>
        <time>2024-08-04T08:40:39Z</time>
      </trkpt>
      <trkpt lat="42.88179" lon="0.66546">
        <ele>994.47</ele>
        <time>2024-08-04T08:40:50Z</time>
      </trkpt>
      <trkpt lat="42.88169" lon="0.66566">
        <ele>988.956</ele>
        <time>2024-08-04T08:40:54Z</time>
      </trkpt>
      <trkpt lat="42.88148" lon="0.66581">
        <ele>992.974</ele>
        <time>2024-08-04T08:41:03Z</time>
      </trkpt>
      <trkpt lat="42.88147" lon="0.66593">
        <ele>993.572</ele>
        <time>2024-08-04T08:41:07Z</time>
      </trkpt>
      <trkpt lat="42.88151" lon="0.66603">
        <ele>993.699</ele>
        <time>2024-08-04T08:41:12Z</time>
      </trkpt>
      <trkpt lat="42.88169" lon="0.6661">
        <ele>993.136</ele>
        <time>2024-08-04T08:41:22Z</time>
      </trkpt>
      <trkpt lat="42.88172" lon="0.66604">
        <ele>992.429</ele>
        <time>2024-08-04T08:41:25Z</time>
      </trkpt>
      <trkpt lat="42.8821" lon="0.66622">
        <ele>991.151</ele>
        <time>2024-08-04T08:41:42Z</time>
      </trkpt>
      <trkpt lat="42.88223" lon="0.66646">
        <ele>1000.091</ele>
        <time>2024-08-04T08:41:47Z</time>
      </trkpt>
      <trkpt lat="42.88256" lon="0.66679">
        <ele>1010.044</ele>
        <time>2024-08-04T08:42:06Z</time>
      </trkpt>
      <trkpt lat="42.88276" lon="0.6669">
        <ele>1012.509</ele>
        <time>2024-08-04T08:42:16Z</time>
      </trkpt>
      <trkpt lat="42.88293" lon="0.66694">
        <ele>1011.508</ele>
        <time>2024-08-04T08:42:21Z</time>
      </trkpt>
      <trkpt lat="42.88345" lon="0.66727">
        <ele>1017.524</ele>
        <time>2024-08-04T08:42:44Z</time>
      </trkpt>
      <trkpt lat="42.88378" lon="0.66731">
        <ele>1013.494</ele>
        <time>2024-08-04T08:42:53Z</time>
      </trkpt>
      <trkpt lat="42.88391" lon="0.66738">
        <ele>1013.9</ele>
        <time>2024-08-04T08:42:56Z</time>
      </trkpt>
      <trkpt lat="42.88408" lon="0.66756">
        <ele>1018.13</ele>
        <time>2024-08-04T08:43:00Z</time>
      </trkpt>
      <trkpt lat="42.88415" lon="0.66773">
        <ele>1022.773</ele>
        <time>2024-08-04T08:43:04Z</time>
      </trkpt>
      <trkpt lat="42.88446" lon="0.66802">
        <ele>1025.704</ele>
        <time>2024-08-04T08:43:16Z</time>
      </trkpt>
      <trkpt lat="42.88489" lon="0.66808">
        <ele>1016.487</ele>
        <time>2024-08-04T08:43:32Z</time>
      </trkpt>
      <trkpt lat="42.88507" lon="0.66825">
        <ele>1015.298</ele>
        <time>2024-08-04T08:43:38Z</time>
      </trkpt>
      <trkpt lat="42.88511" lon="0.66838">
        <ele>1016.859</ele>
        <time>2024-08-04T08:43:41Z</time>
      </trkpt>
      <trkpt lat="42.8851" lon="0.66864">
        <ele>1023.107</ele>
        <time>2024-08-04T08:43:47Z</time>
      </trkpt>
      <trkpt lat="42.88516" lon="0.66883">
        <ele>1025.662</ele>
        <time>2024-08-04T08:43:52Z</time>
      </trkpt>
      <trkpt lat="42.88518" lon="0.66913">
        <ele>1031.872</ele>
        <time>2024-08-04T08:43:59Z</time>
      </trkpt>
      <trkpt lat="42.88533" lon="0.66929">
        <ele>1032.218</ele>
        <time>2024-08-04T08:44:04Z</time>
      </trkpt>
      <trkpt lat="42.88551" lon="0.6693">
        <ele>1030.504</ele>
        <time>2024-08-04T08:44:09Z</time>
      </trkpt>
      <trkpt lat="42.88558" lon="0.66923">
        <ele>1028.557</ele>
        <time>2024-08-04T08:44:12Z</time>
      </trkpt>
      <trkpt lat="42.886" lon="0.66925">
        <ele>1028.684</ele>
        <time>2024-08-04T08:44:24Z</time>
      </trkpt>
      <trkpt lat="42.88621" lon="0.66933">
        <ele>1029.652</ele>
        <time>2024-08-04T08:44:31Z</time>
      </trkpt>
      <trkpt lat="42.8872" lon="0.66949">
        <ele>1027.577</ele>
        <time>2024-08-04T08:45:00Z</time>
      </trkpt>
      <trkpt lat="42.8878" lon="0.66973">
        <ele>1032.391</ele>
        <time>2024-08-04T08:45:17Z</time>
      </trkpt>
      <trkpt lat="42.888" lon="0.6697">
        <ele>1028.979</ele>
        <time>2024-08-04T08:45:23Z</time>
      </trkpt>
      <trkpt lat="42.88812" lon="0.66974">
        <ele>1029.045</ele>
        <time>2024-08-04T08:45:26Z</time>
      </trkpt>
      <trkpt lat="42.88833" lon="0.67002">
        <ele>1037.455</ele>
        <time>2024-08-04T08:45:32Z</time>
      </trkpt>
      <trkpt lat="42.88845" lon="0.6701">
        <ele>1039.501</ele>
        <time>2024-08-04T08:45:35Z</time>
      </trkpt>
      <trkpt lat="42.88867" lon="0.67003">
        <ele>1033.591</ele>
        <time>2024-08-04T08:45:42Z</time>
      </trkpt>
      <trkpt lat="42.88875" lon="0.67006">
        <ele>1033.801</ele>
        <time>2024-08-04T08:45:44Z</time>
      </trkpt>
      <trkpt lat="42.88896" lon="0.67037">
        <ele>1044.729</ele>
        <time>2024-08-04T08:45:52Z</time>
      </trkpt>
      <trkpt lat="42.8893" lon="0.67052">
        <ele>1047.48</ele>
        <time>2024-08-04T08:46:01Z</time>
      </trkpt>
      <trkpt lat="42.88955" lon="0.67088">
        <ele>1061.112</ele>
        <time>2024-08-04T08:46:10Z</time>
      </trkpt>
      <trkpt lat="42.88966" lon="0.67094">
        <ele>1063.314</ele>
        <time>2024-08-04T08:46:14Z</time>
      </trkpt>
      <trkpt lat="42.89036" lon="0.67061">
        <ele>1051.91</ele>
        <time>2024-08-04T08:46:33Z</time>
      </trkpt>
      <trkpt lat="42.89045" lon="0.6705">
        <ele>1048.635</ele>
        <time>2024-08-04T08:46:36Z</time>
      </trkpt>
      <trkpt lat="42.89093" lon="0.67037">
        <ele>1049.818</ele>
        <time>2024-08-04T08:46:48Z</time>
      </trkpt>
      <trkpt lat="42.89129" lon="0.67037">
        <ele>1049.737</ele>
        <time>2024-08-04T08:46:57Z</time>
      </trkpt>
      <trkpt lat="42.89162" lon="0.67066">
        <ele>1057.363</ele>
        <time>2024-08-04T08:47:07Z</time>
      </trkpt>
      <trkpt lat="42.89205" lon="0.67064">
        <ele>1048.424</ele>
        <time>2024-08-04T08:47:18Z</time>
      </trkpt>
      <trkpt lat="42.89236" lon="0.67077">
        <ele>1048.388</ele>
        <time>2024-08-04T08:47:26Z</time>
      </trkpt>
      <trkpt lat="42.89294" lon="0.6715">
        <ele>1058.786</ele>
        <time>2024-08-04T08:47:43Z</time>
      </trkpt>
      <trkpt lat="42.89326" lon="0.67173">
        <ele>1052.425</ele>
        <time>2024-08-04T08:47:49Z</time>
      </trkpt>
      <trkpt lat="42.89359" lon="0.67214">
        <ele>1048.425</ele>
        <time>2024-08-04T08:47:57Z</time>
      </trkpt>
      <trkpt lat="42.89377" lon="0.67278">
        <ele>1056.718</ele>
        <time>2024-08-04T08:48:06Z</time>
      </trkpt>
      <trkpt lat="42.89386" lon="0.67371">
        <ele>1071.432</ele>
        <time>2024-08-04T08:48:23Z</time>
      </trkpt>
      <trkpt lat="42.89405" lon="0.67394">
        <ele>1065.472</ele>
        <time>2024-08-04T08:48:27Z</time>
      </trkpt>
      <trkpt lat="42.8942" lon="0.67425">
        <ele>1062.559</ele>
        <time>2024-08-04T08:48:33Z</time>
      </trkpt>
      <trkpt lat="42.89437" lon="0.67483">
        <ele>1062.363</ele>
        <time>2024-08-04T08:48:44Z</time>
      </trkpt>
      <trkpt lat="42.89463" lon="0.6761">
        <ele>1062.535</ele>
        <time>2024-08-04T08:49:05Z</time>
      </trkpt>
      <trkpt lat="42.89484" lon="0.67668">
        <ele>1057.24</ele>
        <time>2024-08-04T08:49:15Z</time>
      </trkpt>
      <trkpt lat="42.89497" lon="0.67793">
        <ele>1058.312</ele>
        <time>2024-08-04T08:49:34Z</time>
      </trkpt>
      <trkpt lat="42.89499" lon="0.68012">
        <ele>1062.231</ele>
        <time>2024-08-04T08:50:11Z</time>
      </trkpt>
      <trkpt lat="42.89518" lon="0.68099">
        <ele>1057.105</ele>
        <time>2024-08-04T08:50:24Z</time>
      </trkpt>
      <trkpt lat="42.89533" lon="0.68134">
        <ele>1051.848</ele>
        <time>2024-08-04T08:50:29Z</time>
      </trkpt>
      <trkpt lat="42.89536" lon="0.6815">
        <ele>1051.583</ele>
        <time>2024-08-04T08:50:31Z</time>
      </trkpt>
      <trkpt lat="42.89533" lon="0.68189">
        <ele>1054.21</ele>
        <time>2024-08-04T08:50:37Z</time>
      </trkpt>
      <trkpt lat="42.89539" lon="0.68246">
        <ele>1052.056</ele>
        <time>2024-08-04T08:52:05Z</time>
      </trkpt>
      <trkpt lat="42.89517" lon="0.68288">
        <ele>1054.669</ele>
        <time>2024-08-04T08:52:19Z</time>
      </trkpt>
      <trkpt lat="42.89491" lon="0.68318">
        <ele>1049.097</ele>
        <time>2024-08-04T08:52:28Z</time>
      </trkpt>
      <trkpt lat="42.89469" lon="0.68327">
        <ele>1047.533</ele>
        <time>2024-08-04T08:52:35Z</time>
      </trkpt>
      <trkpt lat="42.89438" lon="0.68323">
        <ele>1047.597</ele>
        <time>2024-08-04T08:52:44Z</time>
      </trkpt>
      <trkpt lat="42.89408" lon="0.68329">
        <ele>1038.369</ele>
        <time>2024-08-04T08:52:53Z</time>
      </trkpt>
      <trkpt lat="42.89399" lon="0.68324">
        <ele>1035.511</ele>
        <time>2024-08-04T08:52:56Z</time>
      </trkpt>
      <trkpt lat="42.8936" lon="0.68255">
        <ele>1040.601</ele>
        <time>2024-08-04T08:53:11Z</time>
      </trkpt>
      <trkpt lat="42.89333" lon="0.68233">
        <ele>1031.985</ele>
        <time>2024-08-04T08:53:19Z</time>
      </trkpt>
      <trkpt lat="42.89308" lon="0.68168">
        <ele>1045.001</ele>
        <time>2024-08-04T08:53:31Z</time>
      </trkpt>
      <trkpt lat="42.89272" lon="0.68133">
        <ele>1044.386</ele>
        <time>2024-08-04T08:53:42Z</time>
      </trkpt>
      <trkpt lat="42.89231" lon="0.68117">
        <ele>1038.155</ele>
        <time>2024-08-04T08:53:52Z</time>
      </trkpt>
      <trkpt lat="42.89208" lon="0.68102">
        <ele>1049.942</ele>
        <time>2024-08-04T08:53:58Z</time>
      </trkpt>
      <trkpt lat="42.89183" lon="0.68114">
        <ele>1044.362</ele>
        <time>2024-08-04T08:54:06Z</time>
      </trkpt>
      <trkpt lat="42.89159" lon="0.68154">
        <ele>1031.698</ele>
        <time>2024-08-04T08:54:16Z</time>
      </trkpt>
      <trkpt lat="42.8912" lon="0.68184">
        <ele>1032.601</ele>
        <time>2024-08-04T08:54:28Z</time>
      </trkpt>
      <trkpt lat="42.89093" lon="0.6819">
        <ele>1042.388</ele>
        <time>2024-08-04T08:54:35Z</time>
      </trkpt>
      <trkpt lat="42.89039" lon="0.68222">
        <ele>1038.815</ele>
        <time>2024-08-04T08:54:51Z</time>
      </trkpt>
      <trkpt lat="42.89016" lon="0.68242">
        <ele>1033.469</ele>
        <time>2024-08-04T08:54:57Z</time>
      </trkpt>
      <trkpt lat="42.89002" lon="0.68244">
        <ele>1033.492</ele>
        <time>2024-08-04T08:55:00Z</time>
      </trkpt>
      <trkpt lat="42.88962" lon="0.6823">
        <ele>1038.715</ele>
        <time>2024-08-04T08:55:10Z</time>
      </trkpt>
      <trkpt lat="42.88926" lon="0.68203">
        <ele>1047.74</ele>
        <time>2024-08-04T08:55:21Z</time>
      </trkpt>
      <trkpt lat="42.88908" lon="0.68201">
        <ele>1051.081</ele>
        <time>2024-08-04T08:55:26Z</time>
      </trkpt>
      <trkpt lat="42.88904" lon="0.68206">
        <ele>1049.258</ele>
        <time>2024-08-04T08:55:29Z</time>
      </trkpt>
      <trkpt lat="42.88899" lon="0.68235">
        <ele>1034.484</ele>
        <time>2024-08-04T08:55:35Z</time>
      </trkpt>
      <trkpt lat="42.88889" lon="0.68253">
        <ele>1026.951</ele>
        <time>2024-08-04T08:55:39Z</time>
      </trkpt>
      <trkpt lat="42.88878" lon="0.68264">
        <ele>1024.713</ele>
        <time>2024-08-04T08:55:42Z</time>
      </trkpt>
      <trkpt lat="42.88864" lon="0.68268">
        <ele>1027.322</ele>
        <time>2024-08-04T08:55:45Z</time>
      </trkpt>
      <trkpt lat="42.88839" lon="0.68255">
        <ele>1043.32</ele>
        <time>2024-08-04T08:55:51Z</time>
      </trkpt>
      <trkpt lat="42.88825" lon="0.68254">
        <ele>1050.106</ele>
        <time>2024-08-04T08:55:55Z</time>
      </trkpt>
      <trkpt lat="42.88818" lon="0.68258">
        <ele>1050.174</ele>
        <time>2024-08-04T08:55:57Z</time>
      </trkpt>
      <trkpt lat="42.88798" lon="0.68293">
        <ele>1034.295</ele>
        <time>2024-08-04T08:56:05Z</time>
      </trkpt>
      <trkpt lat="42.88782" lon="0.68302">
        <ele>1032.85</ele>
        <time>2024-08-04T08:56:09Z</time>
      </trkpt>
      <trkpt lat="42.88764" lon="0.68305">
        <ele>1034.985</ele>
        <time>2024-08-04T08:56:13Z</time>
      </trkpt>
      <trkpt lat="42.88715" lon="0.68299">
        <ele>1050.787</ele>
        <time>2024-08-04T08:56:22Z</time>
      </trkpt>
      <trkpt lat="42.88682" lon="0.6831">
        <ele>1052.046</ele>
        <time>2024-08-04T08:56:31Z</time>
      </trkpt>
      <trkpt lat="42.88654" lon="0.68338">
        <ele>1046.594</ele>
        <time>2024-08-04T08:56:40Z</time>
      </trkpt>
      <trkpt lat="42.88594" lon="0.68335">
        <ele>1053.966</ele>
        <time>2024-08-04T08:56:56Z</time>
      </trkpt>
      <trkpt lat="42.88574" lon="0.68327">
        <ele>1058.161</ele>
        <time>2024-08-04T08:57:01Z</time>
      </trkpt>
      <trkpt lat="42.88542" lon="0.68333">
        <ele>1055.671</ele>
        <time>2024-08-04T08:57:09Z</time>
      </trkpt>
      <trkpt lat="42.88515" lon="0.68347">
        <ele>1049.616</ele>
        <time>2024-08-04T08:57:16Z</time>
      </trkpt>
      <trkpt lat="42.88498" lon="0.68342">
        <ele>1054.36</ele>
        <time>2024-08-04T08:57:20Z</time>
      </trkpt>
      <trkpt lat="42.88468" lon="0.68351">
        <ele>1053.3</ele>
        <time>2024-08-04T08:57:27Z</time>
      </trkpt>
      <trkpt lat="42.88445" lon="0.68385">
        <ele>1037.566</ele>
        <time>2024-08-04T08:57:33Z</time>
      </trkpt>
      <trkpt lat="42.88423" lon="0.68398">
        <ele>1042.156</ele>
        <time>2024-08-04T08:57:40Z</time>
      </trkpt>
      <trkpt lat="42.88427" lon="0.68417">
        <ele>1043.272</ele>
        <time>2024-08-04T08:57:45Z</time>
      </trkpt>
      <trkpt lat="42.88459" lon="0.68447">
        <ele>1029.805</ele>
        <time>2024-08-04T08:57:54Z</time>
      </trkpt>
      <trkpt lat="42.88474" lon="0.68452">
        <ele>1024.241</ele>
        <time>2024-08-04T08:57:57Z</time>
      </trkpt>
      <trkpt lat="42.88489" lon="0.68467">
        <ele>1023.069</ele>
        <time>2024-08-04T08:58:01Z</time>
      </trkpt>
      <trkpt lat="42.88531" lon="0.68561">
        <ele>1036.147</ele>
        <time>2024-08-04T08:58:20Z</time>
      </trkpt>
      <trkpt lat="42.88545" lon="0.68576">
        <ele>1027.078</ele>
        <time>2024-08-04T08:58:24Z</time>
      </trkpt>
      <trkpt lat="42.88549" lon="0.68589">
        <ele>1026.052</ele>
        <time>2024-08-04T08:58:27Z</time>
      </trkpt>
      <trkpt lat="42.88541" lon="0.68622">
        <ele>1036.89</ele>
        <time>2024-08-04T08:58:34Z</time>
      </trkpt>
      <trkpt lat="42.88541" lon="0.68664">
        <ele>1040.695</ele>
        <time>2024-08-04T08:58:42Z</time>
      </trkpt>
      <trkpt lat="42.88548" lon="0.6869">
        <ele>1044.474</ele>
        <time>2024-08-04T08:58:47Z</time>
      </trkpt>
      <trkpt lat="42.88564" lon="0.68689">
        <ele>1044.377</ele>
        <time>2024-08-04T08:58:53Z</time>
      </trkpt>
      <trkpt lat="42.88587" lon="0.68664">
        <ele>1036.61</ele>
        <time>2024-08-04T08:59:03Z</time>
      </trkpt>
      <trkpt lat="42.88626" lon="0.68683">
        <ele>1048.019</ele>
        <time>2024-08-04T08:59:10Z</time>
      </trkpt>
      <trkpt lat="42.88656" lon="0.68718">
        <ele>1060.79</ele>
        <time>2024-08-04T08:59:17Z</time>
      </trkpt>
      <trkpt lat="42.88685" lon="0.6872">
        <ele>1052.507</ele>
        <time>2024-08-04T08:59:25Z</time>
      </trkpt>
      <trkpt lat="42.88769" lon="0.68796">
        <ele>1051.214</ele>
        <time>2024-08-04T08:59:49Z</time>
      </trkpt>
      <trkpt lat="42.88776" lon="0.68825">
        <ele>1061.691</ele>
        <time>2024-08-04T08:59:55Z</time>
      </trkpt>
      <trkpt lat="42.88785" lon="0.68836">
        <ele>1061.129</ele>
        <time>2024-08-04T08:59:58Z</time>
      </trkpt>
      <trkpt lat="42.88816" lon="0.68854">
        <ele>1048.519</ele>
        <time>2024-08-04T09:00:06Z</time>
      </trkpt>
      <trkpt lat="42.88832" lon="0.68873">
        <ele>1044.571</ele>
        <time>2024-08-04T09:00:10Z</time>
      </trkpt>
      <trkpt lat="42.88842" lon="0.68894">
        <ele>1045.371</ele>
        <time>2024-08-04T09:00:13Z</time>
      </trkpt>
      <trkpt lat="42.88845" lon="0.68917">
        <ele>1050.917</ele>
        <time>2024-08-04T09:00:17Z</time>
      </trkpt>
      <trkpt lat="42.8886" lon="0.68962">
        <ele>1054.043</ele>
        <time>2024-08-04T09:00:26Z</time>
      </trkpt>
      <trkpt lat="42.88947" lon="0.69067">
        <ele>1027.266</ele>
        <time>2024-08-04T09:00:47Z</time>
      </trkpt>
      <trkpt lat="42.88953" lon="0.69087">
        <ele>1026.715</ele>
        <time>2024-08-04T09:00:51Z</time>
      </trkpt>
      <trkpt lat="42.8895" lon="0.69108">
        <ele>1029.101</ele>
        <time>2024-08-04T09:00:55Z</time>
      </trkpt>
      <trkpt lat="42.88914" lon="0.69165">
        <ele>1024.33</ele>
        <time>2024-08-04T09:01:05Z</time>
      </trkpt>
      <trkpt lat="42.88879" lon="0.69188">
        <ele>1022.972</ele>
        <time>2024-08-04T09:01:12Z</time>
      </trkpt>
      <trkpt lat="42.8886" lon="0.69193">
        <ele>1027.723</ele>
        <time>2024-08-04T09:01:16Z</time>
      </trkpt>
      <trkpt lat="42.88781" lon="0.69242">
        <ele>1021.152</ele>
        <time>2024-08-04T09:01:34Z</time>
      </trkpt>
      <trkpt lat="42.88756" lon="0.69278">
        <ele>1011.931</ele>
        <time>2024-08-04T09:01:45Z</time>
      </trkpt>
      <trkpt lat="42.88725" lon="0.6931">
        <ele>1006.885</ele>
        <time>2024-08-04T09:01:55Z</time>
      </trkpt>
      <trkpt lat="42.88665" lon="0.6935">
        <ele>1009.972</ele>
        <time>2024-08-04T09:02:12Z</time>
      </trkpt>
      <trkpt lat="42.88637" lon="0.69356">
        <ele>1017.305</ele>
        <time>2024-08-04T09:02:20Z</time>
      </trkpt>
      <trkpt lat="42.88578" lon="0.69399">
        <ele>1019.401</ele>
        <time>2024-08-04T09:02:39Z</time>
      </trkpt>
      <trkpt lat="42.88507" lon="0.69471">
        <ele>1028.068</ele>
        <time>2024-08-04T09:03:01Z</time>
      </trkpt>
      <trkpt lat="42.88495" lon="0.69517">
        <ele>1017.633</ele>
        <time>2024-08-04T09:03:11Z</time>
      </trkpt>
      <trkpt lat="42.88482" lon="0.69549">
        <ele>1013.659</ele>
        <time>2024-08-04T09:03:18Z</time>
      </trkpt>
      <trkpt lat="42.88451" lon="0.69578">
        <ele>1024.228</ele>
        <time>2024-08-04T09:03:27Z</time>
      </trkpt>
      <trkpt lat="42.88422" lon="0.69624">
        <ele>1026.153</ele>
        <time>2024-08-04T09:03:38Z</time>
      </trkpt>
      <trkpt lat="42.88404" lon="0.69645">
        <ele>1031.983</ele>
        <time>2024-08-04T09:03:44Z</time>
      </trkpt>
      <trkpt lat="42.88381" lon="0.69687">
        <ele>1034.363</ele>
        <time>2024-08-04T09:03:54Z</time>
      </trkpt>
      <trkpt lat="42.88355" lon="0.69753">
        <ele>1036.087</ele>
        <time>2024-08-04T09:04:08Z</time>
      </trkpt>
      <trkpt lat="42.88333" lon="0.69833">
        <ele>1033.176</ele>
        <time>2024-08-04T09:04:23Z</time>
      </trkpt>
      <trkpt lat="42.8832" lon="0.69857">
        <ele>1037.894</ele>
        <time>2024-08-04T09:04:28Z</time>
      </trkpt>
      <trkpt lat="42.88305" lon="0.69922">
        <ele>1034.343</ele>
        <time>2024-08-04T09:04:40Z</time>
      </trkpt>
      <trkpt lat="42.88298" lon="0.69975">
        <ele>1028.377</ele>
        <time>2024-08-04T09:04:49Z</time>
      </trkpt>
      <trkpt lat="42.88269" lon="0.70075">
        <ele>1028.673</ele>
        <time>2024-08-04T09:05:08Z</time>
      </trkpt>
      <trkpt lat="42.88267" lon="0.70103">
        <ele>1024.753</ele>
        <time>2024-08-04T09:05:14Z</time>
      </trkpt>
      <trkpt lat="42.88259" lon="0.70133">
        <ele>1021.709</ele>
        <time>2024-08-04T09:05:20Z</time>
      </trkpt>
      <trkpt lat="42.88252" lon="0.70147">
        <ele>1022.43</ele>
        <time>2024-08-04T09:05:23Z</time>
      </trkpt>
      <trkpt lat="42.88226" lon="0.70173">
        <ele>1026.073</ele>
        <time>2024-08-04T09:05:31Z</time>
      </trkpt>
      <trkpt lat="42.88201" lon="0.70185">
        <ele>1023.678</ele>
        <time>2024-08-04T09:05:39Z</time>
      </trkpt>
      <trkpt lat="42.88182" lon="0.7017">
        <ele>1027.454</ele>
        <time>2024-08-04T09:05:48Z</time>
      </trkpt>
      <trkpt lat="42.88157" lon="0.7013">
        <ele>1029.836</ele>
        <time>2024-08-04T09:05:59Z</time>
      </trkpt>
      <trkpt lat="42.88118" lon="0.70095">
        <ele>1035.06</ele>
        <time>2024-08-04T09:06:12Z</time>
      </trkpt>
      <trkpt lat="42.88079" lon="0.7008">
        <ele>1036.116</ele>
        <time>2024-08-04T09:06:24Z</time>
      </trkpt>
      <trkpt lat="42.8804" lon="0.70076">
        <ele>1029.899</ele>
        <time>2024-08-04T09:06:35Z</time>
      </trkpt>
      <trkpt lat="42.88002" lon="0.7006">
        <ele>1026.297</ele>
        <time>2024-08-04T09:06:48Z</time>
      </trkpt>
      <trkpt lat="42.8798" lon="0.70025">
        <ele>1040.671</ele>
        <time>2024-08-04T09:06:58Z</time>
      </trkpt>
      <trkpt lat="42.87957" lon="0.70016">
        <ele>1039.066</ele>
        <time>2024-08-04T09:07:06Z</time>
      </trkpt>
      <trkpt lat="42.8794" lon="0.69996">
        <ele>1046.624</ele>
        <time>2024-08-04T09:07:12Z</time>
      </trkpt>
      <trkpt lat="42.87902" lon="0.69982">
        <ele>1039.689</ele>
        <time>2024-08-04T09:07:24Z</time>
      </trkpt>
      <trkpt lat="42.87891" lon="0.69971">
        <ele>1037.088</ele>
        <time>2024-08-04T09:07:29Z</time>
      </trkpt>
      <trkpt lat="42.87883" lon="0.6994">
        <ele>1043.688</ele>
        <time>2024-08-04T09:07:36Z</time>
      </trkpt>
      <trkpt lat="42.8784" lon="0.69825">
        <ele>1043.698</ele>
        <time>2024-08-04T09:08:05Z</time>
      </trkpt>
      <trkpt lat="42.87823" lon="0.6974">
        <ele>1051.316</ele>
        <time>2024-08-04T09:08:25Z</time>
      </trkpt>
      <trkpt lat="42.87823" lon="0.69721">
        <ele>1054.502</ele>
        <time>2024-08-04T09:08:29Z</time>
      </trkpt>
      <trkpt lat="42.87808" lon="0.69683">
        <ele>1052.439</ele>
        <time>2024-08-04T09:08:37Z</time>
      </trkpt>
      <trkpt lat="42.87805" lon="0.69656">
        <ele>1055.445</ele>
        <time>2024-08-04T09:08:42Z</time>
      </trkpt>
      <trkpt lat="42.8781" lon="0.69628">
        <ele>1062.12</ele>
        <time>2024-08-04T09:08:47Z</time>
      </trkpt>
      <trkpt lat="42.87802" lon="0.69601">
        <ele>1064.881</ele>
        <time>2024-08-04T09:08:53Z</time>
      </trkpt>
      <trkpt lat="42.87781" lon="0.69592">
        <ele>1062.708</ele>
        <time>2024-08-04T09:08:58Z</time>
      </trkpt>
      <trkpt lat="42.8775" lon="0.69607">
        <ele>1057.767</ele>
        <time>2024-08-04T09:09:05Z</time>
      </trkpt>
      <trkpt lat="42.8773" lon="0.69609">
        <ele>1058.11</ele>
        <time>2024-08-04T09:09:09Z</time>
      </trkpt>
      <trkpt lat="42.87691" lon="0.69593">
        <ele>1059.742</ele>
        <time>2024-08-04T09:09:16Z</time>
      </trkpt>
      <trkpt lat="42.87672" lon="0.69575">
        <ele>1062.27</ele>
        <time>2024-08-04T09:09:21Z</time>
      </trkpt>
      <trkpt lat="42.87656" lon="0.69568">
        <ele>1059.931</ele>
        <time>2024-08-04T09:09:25Z</time>
      </trkpt>
      <trkpt lat="42.87611" lon="0.69526">
        <ele>1063.902</ele>
        <time>2024-08-04T09:09:38Z</time>
      </trkpt>
      <trkpt lat="42.87595" lon="0.69524">
        <ele>1060.229</ele>
        <time>2024-08-04T09:09:43Z</time>
      </trkpt>
      <trkpt lat="42.8758" lon="0.69513">
        <ele>1060.982</ele>
        <time>2024-08-04T09:09:50Z</time>
      </trkpt>
      <trkpt lat="42.87514" lon="0.69495">
        <ele>1058.86</ele>
        <time>2024-08-04T09:10:07Z</time>
      </trkpt>
      <trkpt lat="42.87484" lon="0.69494">
        <ele>1059.645</ele>
        <time>2024-08-04T09:10:13Z</time>
      </trkpt>
      <trkpt lat="42.87466" lon="0.69483">
        <ele>1063.986</ele>
        <time>2024-08-04T09:10:18Z</time>
      </trkpt>
      <trkpt lat="42.87455" lon="0.69486">
        <ele>1063.806</ele>
        <time>2024-08-04T09:10:21Z</time>
      </trkpt>
      <trkpt lat="42.87447" lon="0.69494">
        <ele>1061.893</ele>
        <time>2024-08-04T09:10:24Z</time>
      </trkpt>
      <trkpt lat="42.87422" lon="0.69505">
        <ele>1060.495</ele>
        <time>2024-08-04T09:10:30Z</time>
      </trkpt>
      <trkpt lat="42.87398" lon="0.69497">
        <ele>1063.959</ele>
        <time>2024-08-04T09:10:35Z</time>
      </trkpt>
      <trkpt lat="42.87369" lon="0.69473">
        <ele>1072.796</ele>
        <time>2024-08-04T09:10:44Z</time>
      </trkpt>
      <trkpt lat="42.87337" lon="0.69474">
        <ele>1061.594</ele>
        <time>2024-08-04T09:10:55Z</time>
      </trkpt>
      <trkpt lat="42.87328" lon="0.69488">
        <ele>1051.549</ele>
        <time>2024-08-04T09:12:23Z</time>
      </trkpt>
      <trkpt lat="42.87325" lon="0.69476">
        <ele>1056.077</ele>
        <time>2024-08-04T09:13:25Z</time>
      </trkpt>
      <trkpt lat="42.87297" lon="0.69441">
        <ele>1059.113</ele>
        <time>2024-08-04T09:13:42Z</time>
      </trkpt>
      <trkpt lat="42.87244" lon="0.69403">
        <ele>1061.853</ele>
        <time>2024-08-04T09:13:56Z</time>
      </trkpt>
      <trkpt lat="42.87236" lon="0.69403">
        <ele>1060.048</ele>
        <time>2024-08-04T09:13:58Z</time>
      </trkpt>
      <trkpt lat="42.8723" lon="0.69415">
        <ele>1059.612</ele>
        <time>2024-08-04T09:14:01Z</time>
      </trkpt>
      <trkpt lat="42.87241" lon="0.69477">
        <ele>1049.563</ele>
        <time>2024-08-04T09:14:13Z</time>
      </trkpt>
      <trkpt lat="42.87212" lon="0.69513">
        <ele>1064.954</ele>
        <time>2024-08-04T09:14:24Z</time>
      </trkpt>
      <trkpt lat="42.87209" lon="0.69547">
        <ele>1065.121</ele>
        <time>2024-08-04T09:14:34Z</time>
      </trkpt>
      <trkpt lat="42.8721" lon="0.6957">
        <ele>1062.493</ele>
        <time>2024-08-04T09:14:40Z</time>
      </trkpt>
      <trkpt lat="42.872" lon="0.69612">
        <ele>1066.514</ele>
        <time>2024-08-04T09:14:52Z</time>
      </trkpt>
      <trkpt lat="42.87173" lon="0.69645">
        <ele>1074.345</ele>
        <time>2024-08-04T09:15:02Z</time>
      </trkpt>
      <trkpt lat="42.87144" lon="0.69655">
        <ele>1078.017</ele>
        <time>2024-08-04T09:15:10Z</time>
      </trkpt>
      <trkpt lat="42.87105" lon="0.69635">
        <ele>1093.57</ele>
        <time>2024-08-04T09:15:25Z</time>
      </trkpt>
      <trkpt lat="42.87067" lon="0.69649">
        <ele>1090.372</ele>
        <time>2024-08-04T09:15:40Z</time>
      </trkpt>
      <trkpt lat="42.87046" lon="0.69645">
        <ele>1096.417</ele>
        <time>2024-08-04T09:15:50Z</time>
      </trkpt>
      <trkpt lat="42.87017" lon="0.69657">
        <ele>1100.026</ele>
        <time>2024-08-04T09:16:04Z</time>
      </trkpt>
      <trkpt lat="42.86997" lon="0.69687">
        <ele>1094.042</ele>
        <time>2024-08-04T09:16:15Z</time>
      </trkpt>
      <trkpt lat="42.86977" lon="0.6969">
        <ele>1099.957</ele>
        <time>2024-08-04T09:16:23Z</time>
      </trkpt>
      <trkpt lat="42.86962" lon="0.69684">
        <ele>1107.186</ele>
        <time>2024-08-04T09:16:29Z</time>
      </trkpt>
      <trkpt lat="42.86921" lon="0.69695">
        <ele>1114.438</ele>
        <time>2024-08-04T09:16:46Z</time>
      </trkpt>
      <trkpt lat="42.86901" lon="0.69691">
        <ele>1119.486</ele>
        <time>2024-08-04T09:16:55Z</time>
      </trkpt>
      <trkpt lat="42.86827" lon="0.69696">
        <ele>1124.113</ele>
        <time>2024-08-04T09:17:25Z</time>
      </trkpt>
      <trkpt lat="42.86788" lon="0.69687">
        <ele>1127.657</ele>
        <time>2024-08-04T09:17:43Z</time>
      </trkpt>
      <trkpt lat="42.86753" lon="0.69687">
        <ele>1125.58</ele>
        <time>2024-08-04T09:17:55Z</time>
      </trkpt>
      <trkpt lat="42.86731" lon="0.6967">
        <ele>1133.305</ele>
        <time>2024-08-04T09:18:04Z</time>
      </trkpt>
      <trkpt lat="42.86679" lon="0.69661">
        <ele>1131.934</ele>
        <time>2024-08-04T09:18:23Z</time>
      </trkpt>
      <trkpt lat="42.8667" lon="0.69665">
        <ele>1128.809</ele>
        <time>2024-08-04T09:18:27Z</time>
      </trkpt>
      <trkpt lat="42.86623" lon="0.69659">
        <ele>1128.606</ele>
        <time>2024-08-04T09:18:46Z</time>
      </trkpt>
      <trkpt lat="42.86611" lon="0.6965">
        <ele>1132.141</ele>
        <time>2024-08-04T09:18:52Z</time>
      </trkpt>
      <trkpt lat="42.86614" lon="0.6964">
        <ele>1137.177</ele>
        <time>2024-08-04T09:18:57Z</time>
      </trkpt>
      <trkpt lat="42.86635" lon="0.69625">
        <ele>1146.312</ele>
        <time>2024-08-04T09:19:07Z</time>
      </trkpt>
      <trkpt lat="42.86673" lon="0.69615">
        <ele>1155.235</ele>
        <time>2024-08-04T09:19:20Z</time>
      </trkpt>
      <trkpt lat="42.86752" lon="0.69608">
        <ele>1166.532</ele>
        <time>2024-08-04T09:19:50Z</time>
      </trkpt>
      <trkpt lat="42.86773" lon="0.69612">
        <ele>1165.871</ele>
        <time>2024-08-04T09:19:57Z</time>
      </trkpt>
      <trkpt lat="42.86802" lon="0.69605">
        <ele>1169.974</ele>
        <time>2024-08-04T09:20:10Z</time>
      </trkpt>
      <trkpt lat="42.86816" lon="0.69594">
        <ele>1175.233</ele>
        <time>2024-08-04T09:20:17Z</time>
      </trkpt>
      <trkpt lat="42.86843" lon="0.69588">
        <ele>1176.503</ele>
        <time>2024-08-04T09:20:27Z</time>
      </trkpt>
      <trkpt lat="42.86877" lon="0.69567">
        <ele>1182.839</ele>
        <time>2024-08-04T09:20:42Z</time>
      </trkpt>
      <trkpt lat="42.869" lon="0.69562">
        <ele>1180.227</ele>
        <time>2024-08-04T09:20:50Z</time>
      </trkpt>
      <trkpt lat="42.86962" lon="0.69517">
        <ele>1189.058</ele>
        <time>2024-08-04T09:21:16Z</time>
      </trkpt>
      <trkpt lat="42.87022" lon="0.69498">
        <ele>1182.567</ele>
        <time>2024-08-04T09:21:43Z</time>
      </trkpt>
      <trkpt lat="42.8704" lon="0.69473">
        <ele>1186.406</ele>
        <time>2024-08-04T09:21:54Z</time>
      </trkpt>
      <trkpt lat="42.87039" lon="0.69448">
        <ele>1192.271</ele>
        <time>2024-08-04T09:22:02Z</time>
      </trkpt>
      <trkpt lat="42.8705" lon="0.69412">
        <ele>1188.186</ele>
        <time>2024-08-04T09:22:15Z</time>
      </trkpt>
      <trkpt lat="42.8705" lon="0.69379">
        <ele>1189.388</ele>
        <time>2024-08-04T09:22:25Z</time>
      </trkpt>
      <trkpt lat="42.87061" lon="0.69325">
        <ele>1186.099</ele>
        <time>2024-08-04T09:22:40Z</time>
      </trkpt>
      <trkpt lat="42.87053" lon="0.69314">
        <ele>1191.902</ele>
        <time>2024-08-04T09:22:44Z</time>
      </trkpt>
      <trkpt lat="42.87045" lon="0.6932">
        <ele>1196.941</ele>
        <time>2024-08-04T09:22:47Z</time>
      </trkpt>
      <trkpt lat="42.87039" lon="0.69337">
        <ele>1200.637</ele>
        <time>2024-08-04T09:22:53Z</time>
      </trkpt>
      <trkpt lat="42.8704" lon="0.69351">
        <ele>1199.241</ele>
        <time>2024-08-04T09:22:58Z</time>
      </trkpt>
      <trkpt lat="42.87035" lon="0.6936">
        <ele>1202.74</ele>
        <time>2024-08-04T09:23:06Z</time>
      </trkpt>
      <trkpt lat="42.87041" lon="0.69358">
        <ele>1197.469</ele>
        <time>2024-08-04T09:26:00Z</time>
      </trkpt>
      <trkpt lat="42.87022" lon="0.69414">
        <ele>1208.708</ele>
        <time>2024-08-04T09:26:42Z</time>
      </trkpt>
      <trkpt lat="42.87015" lon="0.69452">
        <ele>1206.34</ele>
        <time>2024-08-04T09:26:54Z</time>
      </trkpt>
      <trkpt lat="42.87" lon="0.69462">
        <ele>1210.745</ele>
        <time>2024-08-04T09:27:00Z</time>
      </trkpt>
      <trkpt lat="42.86973" lon="0.69465">
        <ele>1217.798</ele>
        <time>2024-08-04T09:27:11Z</time>
      </trkpt>
      <trkpt lat="42.86966" lon="0.6946">
        <ele>1222.119</ele>
        <time>2024-08-04T09:27:14Z</time>
      </trkpt>
      <trkpt lat="42.86939" lon="0.69462">
        <ele>1225.995</ele>
        <time>2024-08-04T09:27:25Z</time>
      </trkpt>
      <trkpt lat="42.86928" lon="0.6947">
        <ele>1223.633</ele>
        <time>2024-08-04T09:27:30Z</time>
      </trkpt>
      <trkpt lat="42.86897" lon="0.69477">
        <ele>1225.762</ele>
        <time>2024-08-04T09:27:44Z</time>
      </trkpt>
      <trkpt lat="42.86879" lon="0.69474">
        <ele>1230.57</ele>
        <time>2024-08-04T09:27:51Z</time>
      </trkpt>
      <trkpt lat="42.86838" lon="0.69481">
        <ele>1235.207</ele>
        <time>2024-08-04T09:28:07Z</time>
      </trkpt>
      <trkpt lat="42.86784" lon="0.69506">
        <ele>1228.351</ele>
        <time>2024-08-04T09:28:31Z</time>
      </trkpt>
      <trkpt lat="42.86767" lon="0.69506">
        <ele>1228.928</ele>
        <time>2024-08-04T09:28:38Z</time>
      </trkpt>
      <trkpt lat="42.86735" lon="0.69495">
        <ele>1236.637</ele>
        <time>2024-08-04T09:28:50Z</time>
      </trkpt>
      <trkpt lat="42.86721" lon="0.69497">
        <ele>1233.565</ele>
        <time>2024-08-04T09:28:55Z</time>
      </trkpt>
      <trkpt lat="42.86646" lon="0.69461">
        <ele>1240.506</ele>
        <time>2024-08-04T09:29:28Z</time>
      </trkpt>
      <trkpt lat="42.8659" lon="0.6942">
        <ele>1253.185</ele>
        <time>2024-08-04T09:29:54Z</time>
      </trkpt>
      <trkpt lat="42.86566" lon="0.69393">
        <ele>1262.927</ele>
        <time>2024-08-04T09:30:07Z</time>
      </trkpt>
      <trkpt lat="42.86527" lon="0.69385">
        <ele>1262.34</ele>
        <time>2024-08-04T09:30:22Z</time>
      </trkpt>
      <trkpt lat="42.86508" lon="0.69399">
        <ele>1253.51</ele>
        <time>2024-08-04T09:30:33Z</time>
      </trkpt>
      <trkpt lat="42.86486" lon="0.69395">
        <ele>1253.627</ele>
        <time>2024-08-04T09:30:44Z</time>
      </trkpt>
      <trkpt lat="42.86478" lon="0.69387">
        <ele>1256.131</ele>
        <time>2024-08-04T09:30:53Z</time>
      </trkpt>
      <trkpt lat="42.86471" lon="0.69357">
        <ele>1266.842</ele>
        <time>2024-08-04T09:31:07Z</time>
      </trkpt>
      <trkpt lat="42.86464" lon="0.69343">
        <ele>1272.515</ele>
        <time>2024-08-04T09:31:14Z</time>
      </trkpt>
      <trkpt lat="42.86456" lon="0.6934">
        <ele>1275.425</ele>
        <time>2024-08-04T09:31:20Z</time>
      </trkpt>
      <trkpt lat="42.86429" lon="0.69291">
        <ele>1288.085</ele>
        <time>2024-08-04T09:31:50Z</time>
      </trkpt>
      <trkpt lat="42.8642" lon="0.69295">
        <ele>1287.127</ele>
        <time>2024-08-04T09:32:34Z</time>
      </trkpt>
      <trkpt lat="42.86418" lon="0.69301">
        <ele>1287.391</ele>
        <time>2024-08-04T09:32:41Z</time>
      </trkpt>
      <trkpt lat="42.86409" lon="0.69303">
        <ele>1291.955</ele>
        <time>2024-08-04T09:33:28Z</time>
      </trkpt>
      <trkpt lat="42.86386" lon="0.69363">
        <ele>1302.146</ele>
        <time>2024-08-04T09:34:42Z</time>
      </trkpt>
      <trkpt lat="42.8638" lon="0.69394">
        <ele>1304.899</ele>
        <time>2024-08-04T09:34:55Z</time>
      </trkpt>
      <trkpt lat="42.86372" lon="0.69403">
        <ele>1309.098</ele>
        <time>2024-08-04T09:35:01Z</time>
      </trkpt>
      <trkpt lat="42.86353" lon="0.69459">
        <ele>1313.227</ele>
        <time>2024-08-04T09:35:32Z</time>
      </trkpt>
      <trkpt lat="42.86333" lon="0.69473">
        <ele>1319.272</ele>
        <time>2024-08-04T09:35:41Z</time>
      </trkpt>
      <trkpt lat="42.86283" lon="0.69473">
        <ele>1330.937</ele>
        <time>2024-08-04T09:36:10Z</time>
      </trkpt>
      <trkpt lat="42.86274" lon="0.69486">
        <ele>1331.58</ele>
        <time>2024-08-04T09:36:30Z</time>
      </trkpt>
      <trkpt lat="42.86262" lon="0.6955">
        <ele>1328.454</ele>
        <time>2024-08-04T09:36:57Z</time>
      </trkpt>
      <trkpt lat="42.8626" lon="0.69591">
        <ele>1326.241</ele>
        <time>2024-08-04T09:37:13Z</time>
      </trkpt>
      <trkpt lat="42.86251" lon="0.69598">
        <ele>1329.023</ele>
        <time>2024-08-04T09:37:50Z</time>
      </trkpt>
      <trkpt lat="42.86246" lon="0.6961">
        <ele>1330.214</ele>
        <time>2024-08-04T09:37:57Z</time>
      </trkpt>
      <trkpt lat="42.86238" lon="0.69603">
        <ele>1333.525</ele>
        <time>2024-08-04T09:38:26Z</time>
      </trkpt>
      <trkpt lat="42.86233" lon="0.69575">
        <ele>1337.613</ele>
        <time>2024-08-04T09:57:29Z</time>
      </trkpt>
      <trkpt lat="42.86228" lon="0.69589">
        <ele>1338.647</ele>
        <time>2024-08-04T10:01:07Z</time>
      </trkpt>
      <trkpt lat="42.86233" lon="0.69584">
        <ele>1336.946</ele>
        <time>2024-08-04T10:02:32Z</time>
      </trkpt>
      <trkpt lat="42.8622" lon="0.69562">
        <ele>1343.607</ele>
        <time>2024-08-04T10:02:47Z</time>
      </trkpt>
      <trkpt lat="42.86216" lon="0.69546">
        <ele>1346.504</ele>
        <time>2024-08-04T10:03:07Z</time>
      </trkpt>
      <trkpt lat="42.86222" lon="0.69528">
        <ele>1345.475</ele>
        <time>2024-08-04T10:03:31Z</time>
      </trkpt>
      <trkpt lat="42.86215" lon="0.69487">
        <ele>1350.821</ele>
        <time>2024-08-04T10:04:16Z</time>
      </trkpt>
      <trkpt lat="42.86215" lon="0.69451">
        <ele>1353.786</ele>
        <time>2024-08-04T10:04:40Z</time>
      </trkpt>
      <trkpt lat="42.86221" lon="0.69423">
        <ele>1354.197</ele>
        <time>2024-08-04T10:05:02Z</time>
      </trkpt>
      <trkpt lat="42.86229" lon="0.69414">
        <ele>1352.678</ele>
        <time>2024-08-04T10:05:19Z</time>
      </trkpt>
      <trkpt lat="42.86229" lon="0.69399">
        <ele>1353.638</ele>
        <time>2024-08-04T10:05:37Z</time>
      </trkpt>
      <trkpt lat="42.8624" lon="0.69385">
        <ele>1351.276</ele>
        <time>2024-08-04T10:06:06Z</time>
      </trkpt>
      <trkpt lat="42.86238" lon="0.69366">
        <ele>1353.451</ele>
        <time>2024-08-04T10:06:16Z</time>
      </trkpt>
      <trkpt lat="42.86243" lon="0.69356">
        <ele>1352.698</ele>
        <time>2024-08-04T10:06:21Z</time>
      </trkpt>
      <trkpt lat="42.86245" lon="0.69321">
        <ele>1355.962</ele>
        <time>2024-08-04T10:06:39Z</time>
      </trkpt>
      <trkpt lat="42.86255" lon="0.69299">
        <ele>1355.617</ele>
        <time>2024-08-04T10:07:10Z</time>
      </trkpt>
      <trkpt lat="42.86277" lon="0.69266">
        <ele>1354.341</ele>
        <time>2024-08-04T10:07:53Z</time>
      </trkpt>
      <trkpt lat="42.86287" lon="0.69259">
        <ele>1351.488</ele>
        <time>2024-08-04T10:08:02Z</time>
      </trkpt>
      <trkpt lat="42.863" lon="0.69234">
        <ele>1350.33</ele>
        <time>2024-08-04T10:08:29Z</time>
      </trkpt>
      <trkpt lat="42.86297" lon="0.69228">
        <ele>1353.576</ele>
        <time>2024-08-04T10:08:31Z</time>
      </trkpt>
      <trkpt lat="42.8629" lon="0.69239">
        <ele>1353.427</ele>
        <time>2024-08-04T10:08:52Z</time>
      </trkpt>
      <trkpt lat="42.86281" lon="0.69243">
        <ele>1356.783</ele>
        <time>2024-08-04T10:09:17Z</time>
      </trkpt>
      <trkpt lat="42.86281" lon="0.69248">
        <ele>1355.813</ele>
        <time>2024-08-04T10:09:20Z</time>
      </trkpt>
      <trkpt lat="42.86254" lon="0.69256">
        <ele>1365.717</ele>
        <time>2024-08-04T10:09:31Z</time>
      </trkpt>
      <trkpt lat="42.86269" lon="0.69249">
        <ele>1360.77</ele>
        <time>2024-08-04T10:09:42Z</time>
      </trkpt>
      <trkpt lat="42.86281" lon="0.69236">
        <ele>1358.374</ele>
        <time>2024-08-04T10:09:52Z</time>
      </trkpt>
      <trkpt lat="42.86284" lon="0.69253">
        <ele>1353.944</ele>
        <time>2024-08-04T10:09:59Z</time>
      </trkpt>
      <trkpt lat="42.86291" lon="0.6926">
        <ele>1349.815</ele>
        <time>2024-08-04T10:10:03Z</time>
      </trkpt>
      <trkpt lat="42.86305" lon="0.693">
        <ele>1338.74</ele>
        <time>2024-08-04T10:10:19Z</time>
      </trkpt>
      <trkpt lat="42.86313" lon="0.69355">
        <ele>1334.584</ele>
        <time>2024-08-04T10:10:40Z</time>
      </trkpt>
      <trkpt lat="42.86315" lon="0.69342">
        <ele>1334.257</ele>
        <time>2024-08-04T10:10:59Z</time>
      </trkpt>
      <trkpt lat="42.86322" lon="0.69336">
        <ele>1332.267</ele>
        <time>2024-08-04T10:11:02Z</time>
      </trkpt>
      <trkpt lat="42.86316" lon="0.6932">
        <ele>1334.212</ele>
        <time>2024-08-04T10:11:09Z</time>
      </trkpt>
      <trkpt lat="42.86326" lon="0.69302">
        <ele>1331.179</ele>
        <time>2024-08-04T10:11:20Z</time>
      </trkpt>
      <trkpt lat="42.86334" lon="0.69298">
        <ele>1328.186</ele>
        <time>2024-08-04T10:11:25Z</time>
      </trkpt>
      <trkpt lat="42.8635" lon="0.69275">
        <ele>1323.532</ele>
        <time>2024-08-04T10:11:51Z</time>
      </trkpt>
      <trkpt lat="42.86361" lon="0.69272">
        <ele>1319.02</ele>
        <time>2024-08-04T10:11:55Z</time>
      </trkpt>
      <trkpt lat="42.86367" lon="0.69263">
        <ele>1317.142</ele>
        <time>2024-08-04T10:12:20Z</time>
      </trkpt>
      <trkpt lat="42.86375" lon="0.69269">
        <ele>1313.097</ele>
        <time>2024-08-04T10:12:47Z</time>
      </trkpt>
      <trkpt lat="42.86383" lon="0.69263">
        <ele>1310.193</ele>
        <time>2024-08-04T10:12:53Z</time>
      </trkpt>
      <trkpt lat="42.86401" lon="0.69266">
        <ele>1301.175</ele>
        <time>2024-08-04T10:13:26Z</time>
      </trkpt>
      <trkpt lat="42.86407" lon="0.6926">
        <ele>1299.55</ele>
        <time>2024-08-04T10:13:37Z</time>
      </trkpt>
      <trkpt lat="42.86417" lon="0.69296">
        <ele>1288.759</ele>
        <time>2024-08-04T10:14:03Z</time>
      </trkpt>
      <trkpt lat="42.86409" lon="0.69304">
        <ele>1291.885</ele>
        <time>2024-08-04T10:14:34Z</time>
      </trkpt>
      <trkpt lat="42.86412" lon="0.69295">
        <ele>1291.218</ele>
        <time>2024-08-04T10:14:57Z</time>
      </trkpt>
      <trkpt lat="42.86438" lon="0.69298">
        <ele>1287.901</ele>
        <time>2024-08-04T10:15:08Z</time>
      </trkpt>
      <trkpt lat="42.8646" lon="0.6931">
        <ele>1285.759</ele>
        <time>2024-08-04T10:15:18Z</time>
      </trkpt>
      <trkpt lat="42.86486" lon="0.69367">
        <ele>1265.503</ele>
        <time>2024-08-04T10:15:34Z</time>
      </trkpt>
      <trkpt lat="42.86491" lon="0.69389">
        <ele>1256.673</ele>
        <time>2024-08-04T10:15:40Z</time>
      </trkpt>
      <trkpt lat="42.86498" lon="0.69397">
        <ele>1253.729</ele>
        <time>2024-08-04T10:15:44Z</time>
      </trkpt>
      <trkpt lat="42.86504" lon="0.69397">
        <ele>1254.117</ele>
        <time>2024-08-04T10:15:46Z</time>
      </trkpt>
      <trkpt lat="42.86515" lon="0.69384">
        <ele>1261.563</ele>
        <time>2024-08-04T10:15:50Z</time>
      </trkpt>
      <trkpt lat="42.86568" lon="0.69395">
        <ele>1262.575</ele>
        <time>2024-08-04T10:16:03Z</time>
      </trkpt>
      <trkpt lat="42.86583" lon="0.69405">
        <ele>1259.49</ele>
        <time>2024-08-04T10:16:06Z</time>
      </trkpt>
      <trkpt lat="42.86612" lon="0.69442">
        <ele>1244.686</ele>
        <time>2024-08-04T10:16:14Z</time>
      </trkpt>
      <trkpt lat="42.86685" lon="0.69484">
        <ele>1235.351</ele>
        <time>2024-08-04T10:16:30Z</time>
      </trkpt>
      <trkpt lat="42.8671" lon="0.69506">
        <ele>1226.098</ele>
        <time>2024-08-04T10:16:37Z</time>
      </trkpt>
      <trkpt lat="42.86738" lon="0.69518">
        <ele>1222.398</ele>
        <time>2024-08-04T10:16:42Z</time>
      </trkpt>
      <trkpt lat="42.86778" lon="0.69521">
        <ele>1219.177</ele>
        <time>2024-08-04T10:16:49Z</time>
      </trkpt>
      <trkpt lat="42.86799" lon="0.69504">
        <ele>1228.022</ele>
        <time>2024-08-04T10:16:52Z</time>
      </trkpt>
      <trkpt lat="42.86838" lon="0.6949">
        <ele>1230.464</ele>
        <time>2024-08-04T10:16:58Z</time>
      </trkpt>
      <trkpt lat="42.86921" lon="0.69478">
        <ele>1220.513</ele>
        <time>2024-08-04T10:17:14Z</time>
      </trkpt>
      <trkpt lat="42.86954" lon="0.69479">
        <ele>1213.877</ele>
        <time>2024-08-04T10:17:21Z</time>
      </trkpt>
      <trkpt lat="42.8699" lon="0.69474">
        <ele>1207.613</ele>
        <time>2024-08-04T10:17:28Z</time>
      </trkpt>
      <trkpt lat="42.87016" lon="0.69451">
        <ele>1205.744</ele>
        <time>2024-08-04T10:17:34Z</time>
      </trkpt>
      <trkpt lat="42.87037" lon="0.69396">
        <ele>1199.032</ele>
        <time>2024-08-04T10:17:43Z</time>
      </trkpt>
      <trkpt lat="42.87055" lon="0.69319">
        <ele>1190.274</ele>
        <time>2024-08-04T10:17:55Z</time>
      </trkpt>
      <trkpt lat="42.87061" lon="0.69313">
        <ele>1188.389</ele>
        <time>2024-08-04T10:17:58Z</time>
      </trkpt>
      <trkpt lat="42.87064" lon="0.69317">
        <ele>1186.32</ele>
        <time>2024-08-04T10:18:00Z</time>
      </trkpt>
      <trkpt lat="42.87051" lon="0.69353">
        <ele>1189.381</ele>
        <time>2024-08-04T10:18:07Z</time>
      </trkpt>
      <trkpt lat="42.87045" lon="0.69403">
        <ele>1192.297</ele>
        <time>2024-08-04T10:18:15Z</time>
      </trkpt>
      <trkpt lat="42.87044" lon="0.69482">
        <ele>1180.532</ele>
        <time>2024-08-04T10:18:26Z</time>
      </trkpt>
      <trkpt lat="42.87035" lon="0.69494">
        <ele>1179.438</ele>
        <time>2024-08-04T10:18:29Z</time>
      </trkpt>
      <trkpt lat="42.86999" lon="0.6952">
        <ele>1176.845</ele>
        <time>2024-08-04T10:18:37Z</time>
      </trkpt>
      <trkpt lat="42.86861" lon="0.69594">
        <ele>1171.059</ele>
        <time>2024-08-04T10:19:01Z</time>
      </trkpt>
      <trkpt lat="42.86838" lon="0.69614">
        <ele>1164.556</ele>
        <time>2024-08-04T10:19:05Z</time>
      </trkpt>
      <trkpt lat="42.86817" lon="0.69624">
        <ele>1160.547</ele>
        <time>2024-08-04T10:19:09Z</time>
      </trkpt>
      <trkpt lat="42.86728" lon="0.69636">
        <ele>1150.732</ele>
        <time>2024-08-04T10:19:29Z</time>
      </trkpt>
      <trkpt lat="42.86716" lon="0.69634">
        <ele>1150.493</ele>
        <time>2024-08-04T10:19:31Z</time>
      </trkpt>
      <trkpt lat="42.86671" lon="0.69644">
        <ele>1139.865</ele>
        <time>2024-08-04T10:19:41Z</time>
      </trkpt>
      <trkpt lat="42.86643" lon="0.6964">
        <ele>1139.045</ele>
        <time>2024-08-04T10:19:47Z</time>
      </trkpt>
      <trkpt lat="42.86615" lon="0.69644">
        <ele>1135.048</ele>
        <time>2024-08-04T10:19:52Z</time>
      </trkpt>
      <trkpt lat="42.86605" lon="0.6966">
        <ele>1128.937</ele>
        <time>2024-08-04T10:19:56Z</time>
      </trkpt>
      <trkpt lat="42.86634" lon="0.69656">
        <ele>1130.316</ele>
        <time>2024-08-04T10:20:03Z</time>
      </trkpt>
      <trkpt lat="42.86704" lon="0.6967">
        <ele>1129.635</ele>
        <time>2024-08-04T10:20:18Z</time>
      </trkpt>
      <trkpt lat="42.86748" lon="0.69687">
        <ele>1125.33</ele>
        <time>2024-08-04T10:20:27Z</time>
      </trkpt>
      <trkpt lat="42.86842" lon="0.69707">
        <ele>1118.158</ele>
        <time>2024-08-04T10:20:49Z</time>
      </trkpt>
      <trkpt lat="42.86858" lon="0.69701">
        <ele>1120.029</ele>
        <time>2024-08-04T10:20:53Z</time>
      </trkpt>
      <trkpt lat="42.86902" lon="0.69699">
        <ele>1115.542</ele>
        <time>2024-08-04T10:21:01Z</time>
      </trkpt>
      <trkpt lat="42.86953" lon="0.69689">
        <ele>1107.972</ele>
        <time>2024-08-04T10:21:12Z</time>
      </trkpt>
      <trkpt lat="42.86981" lon="0.69689">
        <ele>1098.611</ele>
        <time>2024-08-04T10:21:19Z</time>
      </trkpt>
      <trkpt lat="42.86989" lon="0.69685">
        <ele>1097.63</ele>
        <time>2024-08-04T11:07:36Z</time>
      </trkpt>
      <trkpt lat="42.86979" lon="0.69689">
        <ele>1099.686</ele>
        <time>2024-08-04T11:07:40Z</time>
      </trkpt>
      <trkpt lat="42.86955" lon="0.69713">
        <ele>1097.478</ele>
        <time>2024-08-04T11:07:56Z</time>
      </trkpt>
      <trkpt lat="42.86941" lon="0.69735">
        <ele>1089.242</ele>
        <time>2024-08-04T11:08:06Z</time>
      </trkpt>
      <trkpt lat="42.86938" lon="0.69723">
        <ele>1096.42</ele>
        <time>2024-08-04T11:09:04Z</time>
      </trkpt>
      <trkpt lat="42.86934" lon="0.6973">
        <ele>1094.148</ele>
        <time>2024-08-04T11:09:08Z</time>
      </trkpt>
      <trkpt lat="42.86924" lon="0.69729">
        <ele>1097.416</ele>
        <time>2024-08-04T11:09:46Z</time>
      </trkpt>
      <trkpt lat="42.86897" lon="0.69763">
        <ele>1079.177</ele>
        <time>2024-08-04T11:10:12Z</time>
      </trkpt>
      <trkpt lat="42.86853" lon="0.69762">
        <ele>1079.015</ele>
        <time>2024-08-04T11:10:29Z</time>
      </trkpt>
      <trkpt lat="42.86824" lon="0.69776">
        <ele>1067.785</ele>
        <time>2024-08-04T11:10:45Z</time>
      </trkpt>
      <trkpt lat="42.86801" lon="0.69777">
        <ele>1067.828</ele>
        <time>2024-08-04T11:10:57Z</time>
      </trkpt>
      <trkpt lat="42.8679" lon="0.69772">
        <ele>1070.532</ele>
        <time>2024-08-04T11:11:03Z</time>
      </trkpt>
      <trkpt lat="42.86755" lon="0.69781">
        <ele>1069.99</ele>
        <time>2024-08-04T11:11:17Z</time>
      </trkpt>
      <trkpt lat="42.86752" lon="0.69786">
        <ele>1070.673</ele>
        <time>2024-08-04T11:11:22Z</time>
      </trkpt>
      <trkpt lat="42.8676" lon="0.69794">
        <ele>1070.335</ele>
        <time>2024-08-04T11:11:56Z</time>
      </trkpt>
      <trkpt lat="42.86756" lon="0.69807">
        <ele>1071.994</ele>
        <time>2024-08-04T11:12:32Z</time>
      </trkpt>
      <trkpt lat="42.86768" lon="0.69812">
        <ele>1069.211</ele>
        <time>2024-08-04T11:13:07Z</time>
      </trkpt>
      <trkpt lat="42.86782" lon="0.69768">
        <ele>1073.541</ele>
        <time>2024-08-04T11:13:45Z</time>
      </trkpt>
      <trkpt lat="42.86793" lon="0.69772">
        <ele>1070.035</ele>
        <time>2024-08-04T11:13:56Z</time>
      </trkpt>
      <trkpt lat="42.86816" lon="0.69818">
        <ele>1051.955</ele>
        <time>2024-08-04T11:14:09Z</time>
      </trkpt>
      <trkpt lat="42.86831" lon="0.69864">
        <ele>1050.058</ele>
        <time>2024-08-04T11:14:19Z</time>
      </trkpt>
      <trkpt lat="42.86867" lon="0.69904">
        <ele>1050</ele>
        <time>2024-08-04T11:14:41Z</time>
      </trkpt>
      <trkpt lat="42.86877" lon="0.6994">
        <ele>1063.76</ele>
        <time>2024-08-04T11:14:51Z</time>
      </trkpt>
      <trkpt lat="42.86871" lon="0.69939">
        <ele>1065.94</ele>
        <time>2024-08-04T11:15:24Z</time>
      </trkpt>
      <trkpt lat="42.8691" lon="0.69971">
        <ele>1065.656</ele>
        <time>2024-08-04T11:15:54Z</time>
      </trkpt>
      <trkpt lat="42.86918" lon="0.69985">
        <ele>1069.389</ele>
        <time>2024-08-04T11:16:01Z</time>
      </trkpt>
      <trkpt lat="42.86931" lon="0.70026">
        <ele>1087.394</ele>
        <time>2024-08-04T11:16:16Z</time>
      </trkpt>
      <trkpt lat="42.86956" lon="0.70033">
        <ele>1081.782</ele>
        <time>2024-08-04T11:16:30Z</time>
      </trkpt>
      <trkpt lat="42.86969" lon="0.70049">
        <ele>1086.039</ele>
        <time>2024-08-04T11:16:38Z</time>
      </trkpt>
      <trkpt lat="42.86995" lon="0.70058">
        <ele>1085.5</ele>
        <time>2024-08-04T11:16:53Z</time>
      </trkpt>
      <trkpt lat="42.87033" lon="0.70096">
        <ele>1099.369</ele>
        <time>2024-08-04T11:17:38Z</time>
      </trkpt>
      <trkpt lat="42.87044" lon="0.70116">
        <ele>1108.029</ele>
        <time>2024-08-04T11:17:47Z</time>
      </trkpt>
      <trkpt lat="42.87063" lon="0.70129">
        <ele>1111.039</ele>
        <time>2024-08-04T11:17:56Z</time>
      </trkpt>
      <trkpt lat="42.87096" lon="0.70164">
        <ele>1117.469</ele>
        <time>2024-08-04T11:18:11Z</time>
      </trkpt>
      <trkpt lat="42.87117" lon="0.70179">
        <ele>1117.455</ele>
        <time>2024-08-04T11:18:19Z</time>
      </trkpt>
      <trkpt lat="42.87166" lon="0.70247">
        <ele>1127.464</ele>
        <time>2024-08-04T11:18:44Z</time>
      </trkpt>
      <trkpt lat="42.87179" lon="0.70254">
        <ele>1125.917</ele>
        <time>2024-08-04T11:19:07Z</time>
      </trkpt>
      <trkpt lat="42.87225" lon="0.70299">
        <ele>1128.642</ele>
        <time>2024-08-04T11:19:29Z</time>
      </trkpt>
      <trkpt lat="42.87247" lon="0.70344">
        <ele>1131.208</ele>
        <time>2024-08-04T11:19:44Z</time>
      </trkpt>
      <trkpt lat="42.87254" lon="0.70391">
        <ele>1134.064</ele>
        <time>2024-08-04T11:19:59Z</time>
      </trkpt>
      <trkpt lat="42.87272" lon="0.70436">
        <ele>1122.442</ele>
        <time>2024-08-04T11:20:16Z</time>
      </trkpt>
      <trkpt lat="42.87273" lon="0.7047">
        <ele>1121.374</ele>
        <time>2024-08-04T11:20:28Z</time>
      </trkpt>
      <trkpt lat="42.87278" lon="0.70474">
        <ele>1117.347</ele>
        <time>2024-08-04T11:20:29Z</time>
      </trkpt>
      <trkpt lat="42.87281" lon="0.70511">
        <ele>1119.446</ele>
        <time>2024-08-04T11:20:40Z</time>
      </trkpt>
      <trkpt lat="42.87277" lon="0.70525">
        <ele>1125.951</ele>
        <time>2024-08-04T11:20:44Z</time>
      </trkpt>
      <trkpt lat="42.87284" lon="0.70564">
        <ele>1133.121</ele>
        <time>2024-08-04T11:20:59Z</time>
      </trkpt>
      <trkpt lat="42.87276" lon="0.7057">
        <ele>1139.935</ele>
        <time>2024-08-04T11:21:07Z</time>
      </trkpt>
      <trkpt lat="42.87308" lon="0.70577">
        <ele>1129.57</ele>
        <time>2024-08-04T11:21:26Z</time>
      </trkpt>
      <trkpt lat="42.87327" lon="0.70591">
        <ele>1129.55</ele>
        <time>2024-08-04T11:21:35Z</time>
      </trkpt>
      <trkpt lat="42.87349" lon="0.70591">
        <ele>1119.327</ele>
        <time>2024-08-04T11:21:43Z</time>
      </trkpt>
      <trkpt lat="42.87367" lon="0.70608">
        <ele>1116.542</ele>
        <time>2024-08-04T11:21:49Z</time>
      </trkpt>
      <trkpt lat="42.87372" lon="0.70634">
        <ele>1118.824</ele>
        <time>2024-08-04T11:21:55Z</time>
      </trkpt>
      <trkpt lat="42.87374" lon="0.70715">
        <ele>1125.404</ele>
        <time>2024-08-04T11:22:15Z</time>
      </trkpt>
      <trkpt lat="42.87379" lon="0.7074">
        <ele>1123.081</ele>
        <time>2024-08-04T11:22:22Z</time>
      </trkpt>
      <trkpt lat="42.87374" lon="0.70783">
        <ele>1125.426</ele>
        <time>2024-08-04T11:22:34Z</time>
      </trkpt>
      <trkpt lat="42.87379" lon="0.70809">
        <ele>1120.683</ele>
        <time>2024-08-04T11:22:53Z</time>
      </trkpt>
      <trkpt lat="42.87403" lon="0.70813">
        <ele>1108.891</ele>
        <time>2024-08-04T11:23:07Z</time>
      </trkpt>
      <trkpt lat="42.87415" lon="0.70809">
        <ele>1103.399</ele>
        <time>2024-08-04T11:23:13Z</time>
      </trkpt>
      <trkpt lat="42.87421" lon="0.70788">
        <ele>1100.775</ele>
        <time>2024-08-04T11:23:20Z</time>
      </trkpt>
      <trkpt lat="42.87426" lon="0.70785">
        <ele>1098.216</ele>
        <time>2024-08-04T11:23:25Z</time>
      </trkpt>
      <trkpt lat="42.87417" lon="0.70781">
        <ele>1102.191</ele>
        <time>2024-08-04T11:23:47Z</time>
      </trkpt>
      <trkpt lat="42.87435" lon="0.70788">
        <ele>1093.85</ele>
        <time>2024-08-04T11:24:04Z</time>
      </trkpt>
      <trkpt lat="42.87445" lon="0.70788">
        <ele>1087.165</ele>
        <time>2024-08-04T11:24:08Z</time>
      </trkpt>
      <trkpt lat="42.8745" lon="0.70779">
        <ele>1082.938</ele>
        <time>2024-08-04T11:24:17Z</time>
      </trkpt>
      <trkpt lat="42.87447" lon="0.70755">
        <ele>1080.796</ele>
        <time>2024-08-04T11:24:27Z</time>
      </trkpt>
      <trkpt lat="42.8745" lon="0.70736">
        <ele>1075.761</ele>
        <time>2024-08-04T11:24:50Z</time>
      </trkpt>
      <trkpt lat="42.87461" lon="0.70737">
        <ele>1068.312</ele>
        <time>2024-08-04T11:25:12Z</time>
      </trkpt>
      <trkpt lat="42.8747" lon="0.70755">
        <ele>1065.142</ele>
        <time>2024-08-04T11:25:27Z</time>
      </trkpt>
      <trkpt lat="42.87468" lon="0.70758">
        <ele>1067.523</ele>
        <time>2024-08-04T11:25:31Z</time>
      </trkpt>
      <trkpt lat="42.87476" lon="0.70755">
        <ele>1061.028</ele>
        <time>2024-08-04T11:26:07Z</time>
      </trkpt>
      <trkpt lat="42.87476" lon="0.70738">
        <ele>1057.577</ele>
        <time>2024-08-04T11:26:16Z</time>
      </trkpt>
      <trkpt lat="42.87471" lon="0.70727">
        <ele>1059.098</ele>
        <time>2024-08-04T11:26:23Z</time>
      </trkpt>
      <trkpt lat="42.87486" lon="0.70723">
        <ele>1048.318</ele>
        <time>2024-08-04T11:27:05Z</time>
      </trkpt>
      <trkpt lat="42.87489" lon="0.70731">
        <ele>1048.374</ele>
        <time>2024-08-04T11:27:15Z</time>
      </trkpt>
      <trkpt lat="42.87516" lon="0.70755">
        <ele>1033.626</ele>
        <time>2024-08-04T11:27:33Z</time>
      </trkpt>
      <trkpt lat="42.87523" lon="0.70772">
        <ele>1030.206</ele>
        <time>2024-08-04T11:27:41Z</time>
      </trkpt>
      <trkpt lat="42.87535" lon="0.70755">
        <ele>1022.331</ele>
        <time>2024-08-04T11:28:07Z</time>
      </trkpt>
      <trkpt lat="42.87537" lon="0.70743">
        <ele>1020.956</ele>
        <time>2024-08-04T11:28:13Z</time>
      </trkpt>
      <trkpt lat="42.87551" lon="0.70764">
        <ele>1013.785</ele>
        <time>2024-08-04T11:28:54Z</time>
      </trkpt>
      <trkpt lat="42.87554" lon="0.70776">
        <ele>1012.07</ele>
        <time>2024-08-04T11:28:59Z</time>
      </trkpt>
      <trkpt lat="42.87562" lon="0.70779">
        <ele>1006.768</ele>
        <time>2024-08-04T11:29:18Z</time>
      </trkpt>
      <trkpt lat="42.87569" lon="0.70765">
        <ele>1003.209</ele>
        <time>2024-08-04T11:29:28Z</time>
      </trkpt>
      <trkpt lat="42.87575" lon="0.70722">
        <ele>998.331</ele>
        <time>2024-08-04T11:29:50Z</time>
      </trkpt>
      <trkpt lat="42.87573" lon="0.70711">
        <ele>996.791</ele>
        <time>2024-08-04T11:30:12Z</time>
      </trkpt>
      <trkpt lat="42.87585" lon="0.7071">
        <ele>988.422</ele>
        <time>2024-08-04T11:30:20Z</time>
      </trkpt>
      <trkpt lat="42.87601" lon="0.70725">
        <ele>981.695</ele>
        <time>2024-08-04T11:30:30Z</time>
      </trkpt>
      <trkpt lat="42.87603" lon="0.70764">
        <ele>982.432</ele>
        <time>2024-08-04T11:30:50Z</time>
      </trkpt>
      <trkpt lat="42.87611" lon="0.70807">
        <ele>976.807</ele>
        <time>2024-08-04T11:31:04Z</time>
      </trkpt>
      <trkpt lat="42.87605" lon="0.70839">
        <ele>975.389</ele>
        <time>2024-08-04T11:31:17Z</time>
      </trkpt>
      <trkpt lat="42.87596" lon="0.70854">
        <ele>976.494</ele>
        <time>2024-08-04T11:31:25Z</time>
      </trkpt>
      <trkpt lat="42.8759" lon="0.70889">
        <ele>968.401</ele>
        <time>2024-08-04T11:31:50Z</time>
      </trkpt>
      <trkpt lat="42.87594" lon="0.70889">
        <ele>966.529</ele>
        <time>2024-08-04T11:31:57Z</time>
      </trkpt>
      <trkpt lat="42.87593" lon="0.70882">
        <ele>969.23</ele>
        <time>2024-08-04T11:32:10Z</time>
      </trkpt>
      <trkpt lat="42.87609" lon="0.70879">
        <ele>963.365</ele>
        <time>2024-08-04T11:32:24Z</time>
      </trkpt>
      <trkpt lat="42.87646" lon="0.70859">
        <ele>953.835</ele>
        <time>2024-08-04T11:32:51Z</time>
      </trkpt>
      <trkpt lat="42.87676" lon="0.70855">
        <ele>941.011</ele>
        <time>2024-08-04T11:33:04Z</time>
      </trkpt>
      <trkpt lat="42.87687" lon="0.70845">
        <ele>937.156</ele>
        <time>2024-08-04T11:33:12Z</time>
      </trkpt>
      <trkpt lat="42.87693" lon="0.70865">
        <ele>929.386</ele>
        <time>2024-08-04T11:33:25Z</time>
      </trkpt>
      <trkpt lat="42.87687" lon="0.70892">
        <ele>924.937</ele>
        <time>2024-08-04T11:33:36Z</time>
      </trkpt>
      <trkpt lat="42.87702" lon="0.709">
        <ele>915.831</ele>
        <time>2024-08-04T11:34:05Z</time>
      </trkpt>
      <trkpt lat="42.87745" lon="0.70866">
        <ele>898.205</ele>
        <time>2024-08-04T11:34:33Z</time>
      </trkpt>
      <trkpt lat="42.87747" lon="0.70883">
        <ele>894.564</ele>
        <time>2024-08-04T11:34:54Z</time>
      </trkpt>
      <trkpt lat="42.87738" lon="0.7091">
        <ele>895.224</ele>
        <time>2024-08-04T11:35:04Z</time>
      </trkpt>
      <trkpt lat="42.87745" lon="0.70915">
        <ele>889.405</ele>
        <time>2024-08-04T11:35:24Z</time>
      </trkpt>
      <trkpt lat="42.87755" lon="0.70899">
        <ele>888.043</ele>
        <time>2024-08-04T11:35:35Z</time>
      </trkpt>
      <trkpt lat="42.87766" lon="0.70892">
        <ele>882.472</ele>
        <time>2024-08-04T11:35:44Z</time>
      </trkpt>
      <trkpt lat="42.87774" lon="0.70905">
        <ele>877.032</ele>
        <time>2024-08-04T11:35:56Z</time>
      </trkpt>
      <trkpt lat="42.87792" lon="0.70904">
        <ele>866.962</ele>
        <time>2024-08-04T11:36:15Z</time>
      </trkpt>
      <trkpt lat="42.87803" lon="0.70931">
        <ele>855.201</ele>
        <time>2024-08-04T11:36:44Z</time>
      </trkpt>
      <trkpt lat="42.8781" lon="0.70935">
        <ele>850.937</ele>
        <time>2024-08-04T11:36:52Z</time>
      </trkpt>
      <trkpt lat="42.87828" lon="0.70917">
        <ele>848.544</ele>
        <time>2024-08-04T11:37:10Z</time>
      </trkpt>
      <trkpt lat="42.87832" lon="0.70905">
        <ele>850.113</ele>
        <time>2024-08-04T11:37:16Z</time>
      </trkpt>
      <trkpt lat="42.87845" lon="0.70892">
        <ele>842.645</ele>
        <time>2024-08-04T11:37:23Z</time>
      </trkpt>
      <trkpt lat="42.87845" lon="0.70871">
        <ele>841.098</ele>
        <time>2024-08-04T11:37:32Z</time>
      </trkpt>
      <trkpt lat="42.8784" lon="0.70842">
        <ele>842.331</ele>
        <time>2024-08-04T11:37:42Z</time>
      </trkpt>
      <trkpt lat="42.87843" lon="0.70801">
        <ele>831.324</ele>
        <time>2024-08-04T11:38:13Z</time>
      </trkpt>
      <trkpt lat="42.87891" lon="0.70845">
        <ele>810.327</ele>
        <time>2024-08-04T11:38:49Z</time>
      </trkpt>
      <trkpt lat="42.87891" lon="0.70852">
        <ele>811.512</ele>
        <time>2024-08-04T11:38:55Z</time>
      </trkpt>
      <trkpt lat="42.87902" lon="0.70858">
        <ele>804.144</ele>
        <time>2024-08-04T11:39:17Z</time>
      </trkpt>
      <trkpt lat="42.87907" lon="0.70822">
        <ele>793.53</ele>
        <time>2024-08-04T11:39:48Z</time>
      </trkpt>
      <trkpt lat="42.87924" lon="0.70849">
        <ele>788.539</ele>
        <time>2024-08-04T11:40:16Z</time>
      </trkpt>
      <trkpt lat="42.87934" lon="0.70846">
        <ele>781.57</ele>
        <time>2024-08-04T11:40:35Z</time>
      </trkpt>
      <trkpt lat="42.87935" lon="0.70833">
        <ele>777.496</ele>
        <time>2024-08-04T11:40:44Z</time>
      </trkpt>
      <trkpt lat="42.87929" lon="0.7082">
        <ele>778.068</ele>
        <time>2024-08-04T11:40:53Z</time>
      </trkpt>
      <trkpt lat="42.87944" lon="0.70829">
        <ele>770.398</ele>
        <time>2024-08-04T11:41:33Z</time>
      </trkpt>
      <trkpt lat="42.87966" lon="0.7088">
        <ele>766.445</ele>
        <time>2024-08-04T11:41:58Z</time>
      </trkpt>
      <trkpt lat="42.87961" lon="0.70889">
        <ele>770.81</ele>
        <time>2024-08-04T11:42:05Z</time>
      </trkpt>
      <trkpt lat="42.87969" lon="0.70897">
        <ele>767.85</ele>
        <time>2024-08-04T11:42:52Z</time>
      </trkpt>
      <trkpt lat="42.87963" lon="0.70924">
        <ele>768.402</ele>
        <time>2024-08-04T11:43:12Z</time>
      </trkpt>
      <trkpt lat="42.87965" lon="0.70972">
        <ele>759.098</ele>
        <time>2024-08-04T11:43:33Z</time>
      </trkpt>
      <trkpt lat="42.87999" lon="0.70942">
        <ele>747.666</ele>
        <time>2024-08-04T11:43:53Z</time>
      </trkpt>
      <trkpt lat="42.88002" lon="0.70927">
        <ele>747.568</ele>
        <time>2024-08-04T11:43:58Z</time>
      </trkpt>
      <trkpt lat="42.88019" lon="0.70926">
        <ele>739.26</ele>
        <time>2024-08-04T11:44:18Z</time>
      </trkpt>
      <trkpt lat="42.88037" lon="0.70937">
        <ele>729.48</ele>
        <time>2024-08-04T11:44:58Z</time>
      </trkpt>
      <trkpt lat="42.88048" lon="0.70927">
        <ele>723.995</ele>
        <time>2024-08-04T11:45:05Z</time>
      </trkpt>
      <trkpt lat="42.88064" lon="0.70931">
        <ele>715.287</ele>
        <time>2024-08-04T11:46:01Z</time>
      </trkpt>
      <trkpt lat="42.88058" lon="0.70955">
        <ele>719.708</ele>
        <time>2024-08-04T11:46:15Z</time>
      </trkpt>
      <trkpt lat="42.88065" lon="0.70965">
        <ele>715.172</ele>
        <time>2024-08-04T11:46:24Z</time>
      </trkpt>
      <trkpt lat="42.88081" lon="0.70955">
        <ele>705.886</ele>
        <time>2024-08-04T11:46:36Z</time>
      </trkpt>
      <trkpt lat="42.88076" lon="0.70957">
        <ele>709.507</ele>
        <time>2024-08-04T11:46:45Z</time>
      </trkpt>
      <trkpt lat="42.88068" lon="0.70971">
        <ele>711.262</ele>
        <time>2024-08-04T11:46:53Z</time>
      </trkpt>
      <trkpt lat="42.88072" lon="0.70989">
        <ele>703.468</ele>
        <time>2024-08-04T11:47:07Z</time>
      </trkpt>
      <trkpt lat="42.88077" lon="0.7099">
        <ele>700.176</ele>
        <time>2024-08-04T11:47:12Z</time>
      </trkpt>
      <trkpt lat="42.88087" lon="0.70979">
        <ele>697.096</ele>
        <time>2024-08-04T11:47:34Z</time>
      </trkpt>
      <trkpt lat="42.88089" lon="0.71003">
        <ele>690.236</ele>
        <time>2024-08-04T11:47:55Z</time>
      </trkpt>
      <trkpt lat="42.88112" lon="0.71002">
        <ele>677.122</ele>
        <time>2024-08-04T11:48:15Z</time>
      </trkpt>
      <trkpt lat="42.8811" lon="0.71009">
        <ele>677.311</ele>
        <time>2024-08-04T11:48:31Z</time>
      </trkpt>
      <trkpt lat="42.88119" lon="0.71015">
        <ele>670.932</ele>
        <time>2024-08-04T11:48:47Z</time>
      </trkpt>
      <trkpt lat="42.88132" lon="0.71013">
        <ele>663.133</ele>
        <time>2024-08-04T11:48:53Z</time>
      </trkpt>
      <trkpt lat="42.88139" lon="0.71006">
        <ele>658.749</ele>
        <time>2024-08-04T11:48:58Z</time>
      </trkpt>
      <trkpt lat="42.88147" lon="0.71013">
        <ele>653.97</ele>
        <time>2024-08-04T11:49:23Z</time>
      </trkpt>
      <trkpt lat="42.88156" lon="0.71004">
        <ele>647.927</ele>
        <time>2024-08-04T11:49:56Z</time>
      </trkpt>
      <trkpt lat="42.88157" lon="0.70996">
        <ele>646.76</ele>
        <time>2024-08-04T11:50:02Z</time>
      </trkpt>
      <trkpt lat="42.88161" lon="0.71009">
        <ele>645.763</ele>
        <time>2024-08-04T11:50:15Z</time>
      </trkpt>
      <trkpt lat="42.8817" lon="0.71014">
        <ele>641.468</ele>
        <time>2024-08-04T11:50:42Z</time>
      </trkpt>
      <trkpt lat="42.88177" lon="0.7101">
        <ele>637.618</ele>
        <time>2024-08-04T11:51:04Z</time>
      </trkpt>
      <trkpt lat="42.88181" lon="0.71037">
        <ele>632.518</ele>
        <time>2024-08-04T11:51:22Z</time>
      </trkpt>
      <trkpt lat="42.88186" lon="0.71037">
        <ele>629.264</ele>
        <time>2024-08-04T11:51:32Z</time>
      </trkpt>
      <trkpt lat="42.88207" lon="0.71068">
        <ele>611.884</ele>
        <time>2024-08-04T11:52:44Z</time>
      </trkpt>
      <trkpt lat="42.8821" lon="0.71066">
        <ele>611.061</ele>
        <time>2024-08-04T11:52:45Z</time>
      </trkpt>
      <trkpt lat="42.88202" lon="0.71056">
        <ele>616.517</ele>
        <time>2024-08-04T11:52:55Z</time>
      </trkpt>
      <trkpt lat="42.88202" lon="0.71077">
        <ele>612.945</ele>
        <time>2024-08-04T11:56:54Z</time>
      </trkpt>
      <trkpt lat="42.88203" lon="0.7107">
        <ele>613.684</ele>
        <time>2024-08-04T11:57:24Z</time>
      </trkpt>
      <trkpt lat="42.88211" lon="0.71068">
        <ele>610.396</ele>
        <time>2024-08-04T11:57:33Z</time>
      </trkpt>
      <trkpt lat="42.88203" lon="0.71047">
        <ele>617.468</ele>
        <time>2024-08-04T11:57:52Z</time>
      </trkpt>
      <trkpt lat="42.88219" lon="0.71008">
        <ele>618.312</ele>
        <time>2024-08-04T11:58:12Z</time>
      </trkpt>
      <trkpt lat="42.88234" lon="0.70993">
        <ele>617.183</ele>
        <time>2024-08-04T11:58:25Z</time>
      </trkpt>
      <trkpt lat="42.88266" lon="0.70994">
        <ele>604.624</ele>
        <time>2024-08-04T11:58:42Z</time>
      </trkpt>
      <trkpt lat="42.88282" lon="0.70983">
        <ele>601.795</ele>
        <time>2024-08-04T11:58:53Z</time>
      </trkpt>
      <trkpt lat="42.88306" lon="0.70975">
        <ele>594.733</ele>
        <time>2024-08-04T11:59:04Z</time>
      </trkpt>
      <trkpt lat="42.88315" lon="0.70957">
        <ele>594.565</ele>
        <time>2024-08-04T11:59:16Z</time>
      </trkpt>
      <trkpt lat="42.88357" lon="0.70922">
        <ele>587.142</ele>
        <time>2024-08-04T11:59:37Z</time>
      </trkpt>
      <trkpt lat="42.88373" lon="0.70893">
        <ele>584.456</ele>
        <time>2024-08-04T11:59:47Z</time>
      </trkpt>
      <trkpt lat="42.88399" lon="0.70879">
        <ele>576.293</ele>
        <time>2024-08-04T11:59:58Z</time>
      </trkpt>
      <trkpt lat="42.88437" lon="0.70834">
        <ele>566.786</ele>
        <time>2024-08-04T12:00:20Z</time>
      </trkpt>
      <trkpt lat="42.88479" lon="0.70803">
        <ele>558.199</ele>
        <time>2024-08-04T12:00:32Z</time>
      </trkpt>
      <trkpt lat="42.8851" lon="0.70796">
        <ele>549.352</ele>
        <time>2024-08-04T12:00:39Z</time>
      </trkpt>
      <trkpt lat="42.88559" lon="0.70748">
        <ele>543.75</ele>
        <time>2024-08-04T12:01:31Z</time>
      </trkpt>
      <trkpt lat="42.88656" lon="0.70618">
        <ele>543.762</ele>
        <time>2024-08-04T12:01:52Z</time>
      </trkpt>
      <trkpt lat="42.88725" lon="0.70574">
        <ele>540.575</ele>
        <time>2024-08-04T12:02:07Z</time>
      </trkpt>
      <trkpt lat="42.88757" lon="0.7057">
        <ele>538.372</ele>
        <time>2024-08-04T12:02:16Z</time>
      </trkpt>
      <trkpt lat="42.88772" lon="0.70575">
        <ele>534.272</ele>
        <time>2024-08-04T12:02:19Z</time>
      </trkpt>
      <trkpt lat="42.88809" lon="0.70568">
        <ele>533.615</ele>
        <time>2024-08-04T12:02:25Z</time>
      </trkpt>
      <trkpt lat="42.88824" lon="0.70553">
        <ele>537.444</ele>
        <time>2024-08-04T12:02:29Z</time>
      </trkpt>
      <trkpt lat="42.88871" lon="0.70523">
        <ele>535.08</ele>
        <time>2024-08-04T12:02:48Z</time>
      </trkpt>
      <trkpt lat="42.88895" lon="0.70487">
        <ele>541.098</ele>
        <time>2024-08-04T12:03:01Z</time>
      </trkpt>
      <trkpt lat="42.88904" lon="0.70485">
        <ele>538.373</ele>
        <time>2024-08-04T12:03:39Z</time>
      </trkpt>
      <trkpt lat="42.88923" lon="0.7047">
        <ele>537.107</ele>
        <time>2024-08-04T12:03:46Z</time>
      </trkpt>
      <trkpt lat="42.88983" lon="0.70385">
        <ele>537.679</ele>
        <time>2024-08-04T12:04:02Z</time>
      </trkpt>
      <trkpt lat="42.89002" lon="0.70343">
        <ele>537.049</ele>
        <time>2024-08-04T12:04:10Z</time>
      </trkpt>
      <trkpt lat="42.89017" lon="0.7029">
        <ele>539.326</ele>
        <time>2024-08-04T12:04:21Z</time>
      </trkpt>
      <trkpt lat="42.89041" lon="0.70253">
        <ele>531.275</ele>
        <time>2024-08-04T12:04:29Z</time>
      </trkpt>
      <trkpt lat="42.8905" lon="0.70222">
        <ele>533.423</ele>
        <time>2024-08-04T12:04:35Z</time>
      </trkpt>
      <trkpt lat="42.89056" lon="0.70153">
        <ele>545.651</ele>
        <time>2024-08-04T12:04:57Z</time>
      </trkpt>
      <trkpt lat="42.8909" lon="0.70103">
        <ele>542.047</ele>
        <time>2024-08-04T12:05:08Z</time>
      </trkpt>
      <trkpt lat="42.89106" lon="0.70095">
        <ele>538.396</ele>
        <time>2024-08-04T12:05:14Z</time>
      </trkpt>
      <trkpt lat="42.8913" lon="0.70058">
        <ele>535.231</ele>
        <time>2024-08-04T12:05:24Z</time>
      </trkpt>
      <trkpt lat="42.89133" lon="0.70034">
        <ele>536.61</ele>
        <time>2024-08-04T12:05:31Z</time>
      </trkpt>
      <trkpt lat="42.89158" lon="0.69955">
        <ele>536.391</ele>
        <time>2024-08-04T12:05:44Z</time>
      </trkpt>
      <trkpt lat="42.89169" lon="0.69865">
        <ele>546.39</ele>
        <time>2024-08-04T12:05:55Z</time>
      </trkpt>
      <trkpt lat="42.89174" lon="0.69852">
        <ele>547.016</ele>
        <time>2024-08-04T12:05:57Z</time>
      </trkpt>
      <trkpt lat="42.89228" lon="0.69784">
        <ele>548.204</ele>
        <time>2024-08-04T12:06:13Z</time>
      </trkpt>
      <trkpt lat="42.89243" lon="0.69731">
        <ele>550.717</ele>
        <time>2024-08-04T12:06:27Z</time>
      </trkpt>
      <trkpt lat="42.8927" lon="0.69678">
        <ele>551.259</ele>
        <time>2024-08-04T12:06:39Z</time>
      </trkpt>
      <trkpt lat="42.89282" lon="0.69638">
        <ele>553.836</ele>
        <time>2024-08-04T12:06:48Z</time>
      </trkpt>
      <trkpt lat="42.8931" lon="0.69609">
        <ele>554.659</ele>
        <time>2024-08-04T12:06:59Z</time>
      </trkpt>
      <trkpt lat="42.89326" lon="0.69585">
        <ele>556.236</ele>
        <time>2024-08-04T12:07:07Z</time>
      </trkpt>
      <trkpt lat="42.89356" lon="0.69575">
        <ele>554.223</ele>
        <time>2024-08-04T12:07:15Z</time>
      </trkpt>
      <trkpt lat="42.89377" lon="0.69559">
        <ele>555.008</ele>
        <time>2024-08-04T12:07:20Z</time>
      </trkpt>
      <trkpt lat="42.89419" lon="0.695">
        <ele>561.032</ele>
        <time>2024-08-04T12:07:38Z</time>
      </trkpt>
      <trkpt lat="42.89436" lon="0.69488">
        <ele>561.253</ele>
        <time>2024-08-04T12:07:45Z</time>
      </trkpt>
      <trkpt lat="42.89465" lon="0.69444">
        <ele>567.652</ele>
        <time>2024-08-04T12:07:58Z</time>
      </trkpt>
      <trkpt lat="42.89484" lon="0.69426">
        <ele>570.408</ele>
        <time>2024-08-04T12:08:05Z</time>
      </trkpt>
      <trkpt lat="42.89519" lon="0.69377">
        <ele>579.717</ele>
        <time>2024-08-04T12:08:21Z</time>
      </trkpt>
      <trkpt lat="42.89528" lon="0.69343">
        <ele>585.434</ele>
        <time>2024-08-04T12:08:31Z</time>
      </trkpt>
      <trkpt lat="42.89525" lon="0.69331">
        <ele>588.608</ele>
        <time>2024-08-04T12:08:35Z</time>
      </trkpt>
      <trkpt lat="42.89513" lon="0.69324">
        <ele>594.213</ele>
        <time>2024-08-04T12:08:41Z</time>
      </trkpt>
      <trkpt lat="42.89489" lon="0.69368">
        <ele>588.068</ele>
        <time>2024-08-04T12:08:57Z</time>
      </trkpt>
      <trkpt lat="42.89484" lon="0.69369">
        <ele>589.064</ele>
        <time>2024-08-04T12:08:59Z</time>
      </trkpt>
      <trkpt lat="42.89482" lon="0.69361">
        <ele>592.018</ele>
        <time>2024-08-04T12:09:02Z</time>
      </trkpt>
      <trkpt lat="42.89488" lon="0.69354">
        <ele>592.751</ele>
        <time>2024-08-04T12:09:05Z</time>
      </trkpt>
      <trkpt lat="42.89514" lon="0.69287">
        <ele>605.238</ele>
        <time>2024-08-04T12:09:24Z</time>
      </trkpt>
      <trkpt lat="42.89564" lon="0.69211">
        <ele>618.953</ele>
        <time>2024-08-04T12:09:48Z</time>
      </trkpt>
      <trkpt lat="42.89611" lon="0.69155">
        <ele>621.863</ele>
        <time>2024-08-04T12:10:10Z</time>
      </trkpt>
      <trkpt lat="42.89633" lon="0.69163">
        <ele>616.13</ele>
        <time>2024-08-04T12:10:20Z</time>
      </trkpt>
      <trkpt lat="42.89643" lon="0.69159">
        <ele>615.775</ele>
        <time>2024-08-04T12:10:56Z</time>
      </trkpt>
      <trkpt lat="42.89642" lon="0.69165">
        <ele>614.127</ele>
        <time>2024-08-04T12:10:57Z</time>
      </trkpt>
      <trkpt lat="42.89664" lon="0.69167">
        <ele>608.185</ele>
        <time>2024-08-04T12:11:10Z</time>
      </trkpt>
      <trkpt lat="42.89685" lon="0.69202">
        <ele>593.998</ele>
        <time>2024-08-04T12:11:35Z</time>
      </trkpt>
      <trkpt lat="42.89717" lon="0.69227">
        <ele>586.182</ele>
        <time>2024-08-04T12:11:55Z</time>
      </trkpt>
      <trkpt lat="42.89748" lon="0.69239">
        <ele>581.65</ele>
        <time>2024-08-04T12:12:13Z</time>
      </trkpt>
      <trkpt lat="42.89806" lon="0.6928">
        <ele>572.759</ele>
        <time>2024-08-04T12:12:39Z</time>
      </trkpt>
      <trkpt lat="42.89822" lon="0.69281">
        <ele>570.067</ele>
        <time>2024-08-04T12:12:46Z</time>
      </trkpt>
      <trkpt lat="42.89833" lon="0.69276">
        <ele>568.592</ele>
        <time>2024-08-04T12:13:19Z</time>
      </trkpt>
      <trkpt lat="42.89875" lon="0.69295">
        <ele>560.818</ele>
        <time>2024-08-04T12:13:29Z</time>
      </trkpt>
      <trkpt lat="42.8998" lon="0.69358">
        <ele>545.818</ele>
        <time>2024-08-04T12:13:48Z</time>
      </trkpt>
      <trkpt lat="42.90011" lon="0.69336">
        <ele>543.268</ele>
        <time>2024-08-04T12:13:57Z</time>
      </trkpt>
      <trkpt lat="42.90027" lon="0.69268">
        <ele>543.066</ele>
        <time>2024-08-04T12:14:12Z</time>
      </trkpt>
      <trkpt lat="42.90026" lon="0.69245">
        <ele>543.498</ele>
        <time>2024-08-04T12:14:17Z</time>
      </trkpt>
      <trkpt lat="42.90036" lon="0.69223">
        <ele>542.412</ele>
        <time>2024-08-04T12:14:22Z</time>
      </trkpt>
      <trkpt lat="42.90042" lon="0.69189">
        <ele>541.955</ele>
        <time>2024-08-04T12:14:29Z</time>
      </trkpt>
      <trkpt lat="42.9003" lon="0.6903">
        <ele>552.081</ele>
        <time>2024-08-04T12:14:54Z</time>
      </trkpt>
      <trkpt lat="42.90037" lon="0.69006">
        <ele>555.681</ele>
        <time>2024-08-04T12:14:59Z</time>
      </trkpt>
      <trkpt lat="42.90045" lon="0.68998">
        <ele>557.315</ele>
        <time>2024-08-04T12:15:03Z</time>
      </trkpt>
      <trkpt lat="42.9007" lon="0.68989">
        <ele>556.657</ele>
        <time>2024-08-04T12:15:10Z</time>
      </trkpt>
      <trkpt lat="42.90085" lon="0.69009">
        <ele>548.321</ele>
        <time>2024-08-04T12:15:15Z</time>
      </trkpt>
      <trkpt lat="42.90142" lon="0.68996">
        <ele>543.976</ele>
        <time>2024-08-04T12:15:29Z</time>
      </trkpt>
      <trkpt lat="42.90161" lon="0.68984">
        <ele>543.82</ele>
        <time>2024-08-04T12:15:33Z</time>
      </trkpt>
      <trkpt lat="42.90187" lon="0.68979">
        <ele>540.752</ele>
        <time>2024-08-04T12:15:37Z</time>
      </trkpt>
      <trkpt lat="42.90216" lon="0.68962">
        <ele>538.988</ele>
        <time>2024-08-04T12:15:41Z</time>
      </trkpt>
      <trkpt lat="42.90253" lon="0.6895">
        <ele>531.444</ele>
        <time>2024-08-04T12:15:46Z</time>
      </trkpt>
      <trkpt lat="42.90341" lon="0.68946">
        <ele>516.481</ele>
        <time>2024-08-04T12:15:57Z</time>
      </trkpt>
      <trkpt lat="42.90387" lon="0.68924">
        <ele>520.262</ele>
        <time>2024-08-04T12:16:02Z</time>
      </trkpt>
      <trkpt lat="42.90465" lon="0.68911">
        <ele>523.626</ele>
        <time>2024-08-04T12:16:17Z</time>
      </trkpt>
      <trkpt lat="42.90522" lon="0.68918">
        <ele>523.195</ele>
        <time>2024-08-04T12:16:29Z</time>
      </trkpt>
      <trkpt lat="42.90543" lon="0.68915">
        <ele>523.188</ele>
        <time>2024-08-04T12:16:34Z</time>
      </trkpt>
      <trkpt lat="42.90597" lon="0.68879">
        <ele>527.793</ele>
        <time>2024-08-04T12:16:50Z</time>
      </trkpt>
      <trkpt lat="42.90617" lon="0.68874">
        <ele>528.699</ele>
        <time>2024-08-04T12:16:55Z</time>
      </trkpt>
      <trkpt lat="42.90651" lon="0.68882">
        <ele>527.487</ele>
        <time>2024-08-04T12:17:02Z</time>
      </trkpt>
      <trkpt lat="42.90696" lon="0.6885">
        <ele>533.473</ele>
        <time>2024-08-04T12:17:14Z</time>
      </trkpt>
      <trkpt lat="42.90714" lon="0.68829">
        <ele>536.176</ele>
        <time>2024-08-04T12:17:22Z</time>
      </trkpt>
      <trkpt lat="42.90746" lon="0.68817">
        <ele>536.559</ele>
        <time>2024-08-04T12:17:30Z</time>
      </trkpt>
      <trkpt lat="42.90792" lon="0.68811">
        <ele>536.086</ele>
        <time>2024-08-04T12:17:39Z</time>
      </trkpt>
      <trkpt lat="42.90794" lon="0.68801">
        <ele>537.976</ele>
        <time>2024-08-04T12:17:45Z</time>
      </trkpt>
      <trkpt lat="42.90792" lon="0.68795">
        <ele>539.227</ele>
        <time>2024-08-04T12:17:50Z</time>
      </trkpt>
      <trkpt lat="42.90797" lon="0.68796">
        <ele>538.911</ele>
        <time>2024-08-04T12:17:58Z</time>
      </trkpt>
      <trkpt lat="42.90812" lon="0.68748">
        <ele>548.284</ele>
        <time>2024-08-04T12:18:18Z</time>
      </trkpt>
      <trkpt lat="42.90825" lon="0.68758">
        <ele>546.696</ele>
        <time>2024-08-04T12:18:24Z</time>
      </trkpt>
      <trkpt lat="42.90903" lon="0.68791">
        <ele>544.089</ele>
        <time>2024-08-04T12:18:42Z</time>
      </trkpt>
      <trkpt lat="42.90937" lon="0.68815">
        <ele>541.903</ele>
        <time>2024-08-04T12:18:52Z</time>
      </trkpt>
      <trkpt lat="42.91004" lon="0.68959">
        <ele>518</ele>
        <time>2024-08-04T12:19:17Z</time>
      </trkpt>
      <trkpt lat="42.91028" lon="0.68987">
        <ele>514.239</ele>
        <time>2024-08-04T12:19:22Z</time>
      </trkpt>
      <trkpt lat="42.91096" lon="0.69037">
        <ele>506.525</ele>
        <time>2024-08-04T12:19:36Z</time>
      </trkpt>
      <trkpt lat="42.91098" lon="0.69048">
        <ele>504.954</ele>
        <time>2024-08-04T12:19:40Z</time>
      </trkpt>
      <trkpt lat="42.91121" lon="0.69049">
        <ele>506.089</ele>
        <time>2024-08-04T12:19:47Z</time>
      </trkpt>
      <trkpt lat="42.9117" lon="0.69074">
        <ele>506.429</ele>
        <time>2024-08-04T12:19:57Z</time>
      </trkpt>
      <trkpt lat="42.91187" lon="0.69096">
        <ele>502.697</ele>
        <time>2024-08-04T12:20:02Z</time>
      </trkpt>
      <trkpt lat="42.91205" lon="0.69107">
        <ele>504.995</ele>
        <time>2024-08-04T12:20:06Z</time>
      </trkpt>
      <trkpt lat="42.91223" lon="0.69126">
        <ele>504.845</ele>
        <time>2024-08-04T12:20:11Z</time>
      </trkpt>
      <trkpt lat="42.91242" lon="0.69167">
        <ele>506.971</ele>
        <time>2024-08-04T12:20:18Z</time>
      </trkpt>
      <trkpt lat="42.9126" lon="0.69191">
        <ele>509.04</ele>
        <time>2024-08-04T12:20:24Z</time>
      </trkpt>
      <trkpt lat="42.91296" lon="0.69204">
        <ele>510.588</ele>
        <time>2024-08-04T12:20:33Z</time>
      </trkpt>
      <trkpt lat="42.91316" lon="0.69206">
        <ele>512.973</ele>
        <time>2024-08-04T12:20:38Z</time>
      </trkpt>
      <trkpt lat="42.91353" lon="0.69233">
        <ele>503.061</ele>
        <time>2024-08-04T12:20:48Z</time>
      </trkpt>
      <trkpt lat="42.91371" lon="0.69232">
        <ele>503.904</ele>
        <time>2024-08-04T12:20:52Z</time>
      </trkpt>
      <trkpt lat="42.91402" lon="0.69211">
        <ele>510.85</ele>
        <time>2024-08-04T12:21:01Z</time>
      </trkpt>
      <trkpt lat="42.9144" lon="0.69222">
        <ele>504.322</ele>
        <time>2024-08-04T12:21:09Z</time>
      </trkpt>
      <trkpt lat="42.91485" lon="0.69197">
        <ele>506.597</ele>
        <time>2024-08-04T12:21:20Z</time>
      </trkpt>
      <trkpt lat="42.91512" lon="0.69165">
        <ele>509.336</ele>
        <time>2024-08-04T12:21:32Z</time>
      </trkpt>
      <trkpt lat="42.91513" lon="0.69158">
        <ele>510.694</ele>
        <time>2024-08-04T12:21:34Z</time>
      </trkpt>
      <trkpt lat="42.91519" lon="0.69164">
        <ele>507.911</ele>
        <time>2024-08-04T12:21:35Z</time>
      </trkpt>
      <trkpt lat="42.91534" lon="0.69119">
        <ele>524.758</ele>
        <time>2024-08-04T12:21:46Z</time>
      </trkpt>
      <trkpt lat="42.91545" lon="0.69123">
        <ele>517.244</ele>
        <time>2024-08-04T12:21:51Z</time>
      </trkpt>
      <trkpt lat="42.9157" lon="0.69094">
        <ele>510.522</ele>
        <time>2024-08-04T12:21:59Z</time>
      </trkpt>
      <trkpt lat="42.91628" lon="0.68983">
        <ele>502.341</ele>
        <time>2024-08-04T12:22:16Z</time>
      </trkpt>
      <trkpt lat="42.91645" lon="0.68913">
        <ele>511.475</ele>
        <time>2024-08-04T12:22:24Z</time>
      </trkpt>
      <trkpt lat="42.91661" lon="0.68892">
        <ele>497.888</ele>
        <time>2024-08-04T12:22:28Z</time>
      </trkpt>
      <trkpt lat="42.9167" lon="0.68862">
        <ele>491.173</ele>
        <time>2024-08-04T12:22:32Z</time>
      </trkpt>
      <trkpt lat="42.91672" lon="0.68839">
        <ele>492.371</ele>
        <time>2024-08-04T12:22:35Z</time>
      </trkpt>
      <trkpt lat="42.91667" lon="0.68781">
        <ele>501.381</ele>
        <time>2024-08-04T12:22:42Z</time>
      </trkpt>
      <trkpt lat="42.91667" lon="0.6869">
        <ele>504.776</ele>
        <time>2024-08-04T12:22:53Z</time>
      </trkpt>
      <trkpt lat="42.91679" lon="0.68657">
        <ele>504.774</ele>
        <time>2024-08-04T12:22:57Z</time>
      </trkpt>
      <trkpt lat="42.91691" lon="0.68639">
        <ele>503.326</ele>
        <time>2024-08-04T12:23:00Z</time>
      </trkpt>
      <trkpt lat="42.91722" lon="0.68573">
        <ele>501.025</ele>
        <time>2024-08-04T12:23:10Z</time>
      </trkpt>
      <trkpt lat="42.91733" lon="0.68533">
        <ele>502.497</ele>
        <time>2024-08-04T12:23:15Z</time>
      </trkpt>
      <trkpt lat="42.91747" lon="0.68445">
        <ele>498.783</ele>
        <time>2024-08-04T12:23:34Z</time>
      </trkpt>
      <trkpt lat="42.91747" lon="0.68409">
        <ele>497.985</ele>
        <time>2024-08-04T12:23:41Z</time>
      </trkpt>
      <trkpt lat="42.91757" lon="0.68316">
        <ele>496.839</ele>
        <time>2024-08-04T12:23:53Z</time>
      </trkpt>
      <trkpt lat="42.91764" lon="0.68302">
        <ele>496.671</ele>
        <time>2024-08-04T12:23:55Z</time>
      </trkpt>
      <trkpt lat="42.91789" lon="0.68276">
        <ele>496.201</ele>
        <time>2024-08-04T12:24:00Z</time>
      </trkpt>
      <trkpt lat="42.91823" lon="0.6822">
        <ele>495.385</ele>
        <time>2024-08-04T12:24:10Z</time>
      </trkpt>
      <trkpt lat="42.91835" lon="0.68192">
        <ele>495.125</ele>
        <time>2024-08-04T12:24:16Z</time>
      </trkpt>
      <trkpt lat="42.91849" lon="0.68049">
        <ele>494.495</ele>
        <time>2024-08-04T12:25:25Z</time>
      </trkpt>
      <trkpt lat="42.91855" lon="0.6804">
        <ele>494.225</ele>
        <time>2024-08-04T12:25:27Z</time>
      </trkpt>
      <trkpt lat="42.91894" lon="0.68032">
        <ele>492.542</ele>
        <time>2024-08-04T12:25:34Z</time>
      </trkpt>
      <trkpt lat="42.91925" lon="0.68019">
        <ele>491.444</ele>
        <time>2024-08-04T12:25:40Z</time>
      </trkpt>
      <trkpt lat="42.92026" lon="0.67895">
        <ele>485.66</ele>
        <time>2024-08-04T12:26:03Z</time>
      </trkpt>
      <trkpt lat="42.92036" lon="0.67872">
        <ele>486.394</ele>
        <time>2024-08-04T12:26:09Z</time>
      </trkpt>
      <trkpt lat="42.92052" lon="0.67848">
        <ele>487.362</ele>
        <time>2024-08-04T12:26:15Z</time>
      </trkpt>
      <trkpt lat="42.92079" lon="0.67823">
        <ele>488.943</ele>
        <time>2024-08-04T12:26:21Z</time>
      </trkpt>
      <trkpt lat="42.92107" lon="0.67787">
        <ele>489.936</ele>
        <time>2024-08-04T12:26:30Z</time>
      </trkpt>
      <trkpt lat="42.92114" lon="0.6776">
        <ele>490.718</ele>
        <time>2024-08-04T12:26:35Z</time>
      </trkpt>
      <trkpt lat="42.92111" lon="0.67727">
        <ele>492.531</ele>
        <time>2024-08-04T12:26:40Z</time>
      </trkpt>
      <trkpt lat="42.9212" lon="0.67649">
        <ele>495.369</ele>
        <time>2024-08-04T12:26:50Z</time>
      </trkpt>
      <trkpt lat="42.92134" lon="0.67612">
        <ele>495.564</ele>
        <time>2024-08-04T12:26:55Z</time>
      </trkpt>
      <trkpt lat="42.92161" lon="0.67582">
        <ele>493.973</ele>
        <time>2024-08-04T12:27:02Z</time>
      </trkpt>
      <trkpt lat="42.92167" lon="0.6756">
        <ele>493.538</ele>
        <time>2024-08-04T12:27:05Z</time>
      </trkpt>
      <trkpt lat="42.92168" lon="0.67442">
        <ele>492.58</ele>
        <time>2024-08-04T12:27:23Z</time>
      </trkpt>
      <trkpt lat="42.92166" lon="0.67487">
        <ele>493.05</ele>
        <time>2024-08-04T12:27:33Z</time>
      </trkpt>
      <trkpt lat="42.92171" lon="0.67497">
        <ele>492.9</ele>
        <time>2024-08-04T12:27:35Z</time>
      </trkpt>
      <trkpt lat="42.92253" lon="0.67517">
        <ele>487.984</ele>
        <time>2024-08-04T12:27:54Z</time>
      </trkpt>
      <trkpt lat="42.92268" lon="0.67529">
        <ele>486.808</ele>
        <time>2024-08-04T12:28:00Z</time>
      </trkpt>
      <trkpt lat="42.9233" lon="0.67559">
        <ele>481.878</ele>
        <time>2024-08-04T12:28:27Z</time>
      </trkpt>
      <trkpt lat="42.9227" lon="0.67534">
        <ele>486.654</ele>
        <time>2024-08-04T12:28:43Z</time>
      </trkpt>
      <trkpt lat="42.92221" lon="0.67505">
        <ele>490.312</ele>
        <time>2024-08-04T12:28:56Z</time>
      </trkpt>
      <trkpt lat="42.92194" lon="0.67496">
        <ele>491.766</ele>
        <time>2024-08-04T12:29:01Z</time>
      </trkpt>
      <trkpt lat="42.92173" lon="0.67503">
        <ele>492.822</ele>
        <time>2024-08-04T12:29:05Z</time>
      </trkpt>
      <trkpt lat="42.92166" lon="0.67497">
        <ele>493.12</ele>
        <time>2024-08-04T12:29:07Z</time>
      </trkpt>
      <trkpt lat="42.92165" lon="0.67476">
        <ele>492.99</ele>
        <time>2024-08-04T12:29:10Z</time>
      </trkpt>
      <trkpt lat="42.92179" lon="0.67338">
        <ele>494.177</ele>
        <time>2024-08-04T12:29:27Z</time>
      </trkpt>
      <trkpt lat="42.92188" lon="0.67291">
        <ele>495.281</ele>
        <time>2024-08-04T12:29:34Z</time>
      </trkpt>
      <trkpt lat="42.92218" lon="0.672">
        <ele>495.624</ele>
        <time>2024-08-04T12:29:48Z</time>
      </trkpt>
      <trkpt lat="42.92211" lon="0.67133">
        <ele>496.416</ele>
        <time>2024-08-04T12:29:58Z</time>
      </trkpt>
      <trkpt lat="42.92193" lon="0.67098">
        <ele>498.088</ele>
        <time>2024-08-04T12:30:04Z</time>
      </trkpt>
      <trkpt lat="42.92183" lon="0.66974">
        <ele>496.068</ele>
        <time>2024-08-04T12:30:20Z</time>
      </trkpt>
      <trkpt lat="42.92151" lon="0.66852">
        <ele>501.143</ele>
        <time>2024-08-04T12:30:38Z</time>
      </trkpt>
      <trkpt lat="42.92134" lon="0.66827">
        <ele>502.454</ele>
        <time>2024-08-04T12:30:42Z</time>
      </trkpt>
      <trkpt lat="42.92093" lon="0.66741">
        <ele>506.532</ele>
        <time>2024-08-04T12:30:54Z</time>
      </trkpt>
      <trkpt lat="42.92091" lon="0.66662">
        <ele>490.425</ele>
        <time>2024-08-04T12:31:02Z</time>
      </trkpt>
      <trkpt lat="42.92059" lon="0.66494">
        <ele>483.539</ele>
        <time>2024-08-04T12:31:22Z</time>
      </trkpt>
      <trkpt lat="42.92045" lon="0.66456">
        <ele>485.36</ele>
        <time>2024-08-04T12:31:27Z</time>
      </trkpt>
      <trkpt lat="42.92012" lon="0.66405">
        <ele>495.461</ele>
        <time>2024-08-04T12:31:36Z</time>
      </trkpt>
      <trkpt lat="42.92002" lon="0.66381">
        <ele>495.981</ele>
        <time>2024-08-04T12:31:41Z</time>
      </trkpt>
      <trkpt lat="42.91989" lon="0.66366">
        <ele>497.436</ele>
        <time>2024-08-04T12:31:45Z</time>
      </trkpt>
      <trkpt lat="42.91951" lon="0.66338">
        <ele>497.067</ele>
        <time>2024-08-04T12:31:57Z</time>
      </trkpt>
      <trkpt lat="42.9183" lon="0.66285">
        <ele>490.81</ele>
        <time>2024-08-04T12:32:22Z</time>
      </trkpt>
      <trkpt lat="42.91757" lon="0.66198">
        <ele>491.384</ele>
        <time>2024-08-04T12:32:40Z</time>
      </trkpt>
      <trkpt lat="42.9166" lon="0.6612">
        <ele>494.826</ele>
        <time>2024-08-04T12:33:02Z</time>
      </trkpt>
      <trkpt lat="42.91611" lon="0.66092">
        <ele>496.397</ele>
        <time>2024-08-04T12:33:13Z</time>
      </trkpt>
      <trkpt lat="42.91589" lon="0.66069">
        <ele>497.261</ele>
        <time>2024-08-04T12:33:19Z</time>
      </trkpt>
      <trkpt lat="42.91525" lon="0.65947">
        <ele>501.118</ele>
        <time>2024-08-04T12:33:43Z</time>
      </trkpt>
      <trkpt lat="42.91518" lon="0.65942">
        <ele>501.714</ele>
        <time>2024-08-04T12:33:46Z</time>
      </trkpt>
      <trkpt lat="42.91482" lon="0.65979">
        <ele>503.795</ele>
        <time>2024-08-04T12:33:58Z</time>
      </trkpt>
      <trkpt lat="42.91452" lon="0.65989">
        <ele>506.281</ele>
        <time>2024-08-04T12:34:06Z</time>
      </trkpt>
      <trkpt lat="42.91402" lon="0.65963">
        <ele>509.688</ele>
        <time>2024-08-04T12:34:22Z</time>
      </trkpt>
      <trkpt lat="42.91396" lon="0.65941">
        <ele>509.631</ele>
        <time>2024-08-04T12:34:28Z</time>
      </trkpt>
      <trkpt lat="42.91386" lon="0.65925">
        <ele>509.816</ele>
        <time>2024-08-04T12:34:33Z</time>
      </trkpt>
      <trkpt lat="42.91363" lon="0.65916">
        <ele>510.636</ele>
        <time>2024-08-04T12:34:44Z</time>
      </trkpt>
      <trkpt lat="42.91344" lon="0.65919">
        <ele>511.278</ele>
        <time>2024-08-04T12:34:50Z</time>
      </trkpt>
      <trkpt lat="42.91328" lon="0.65933">
        <ele>511.867</ele>
        <time>2024-08-04T12:34:55Z</time>
      </trkpt>
      <trkpt lat="42.91288" lon="0.65953">
        <ele>513.591</ele>
        <time>2024-08-04T12:35:07Z</time>
      </trkpt>
      <trkpt lat="42.91256" lon="0.65998">
        <ele>516.933</ele>
        <time>2024-08-04T12:35:18Z</time>
      </trkpt>
      <trkpt lat="42.91241" lon="0.66">
        <ele>518.302</ele>
        <time>2024-08-04T12:35:22Z</time>
      </trkpt>
      <trkpt lat="42.91185" lon="0.65963">
        <ele>521.949</ele>
        <time>2024-08-04T12:35:39Z</time>
      </trkpt>
      <trkpt lat="42.91172" lon="0.65963">
        <ele>523.833</ele>
        <time>2024-08-04T12:35:48Z</time>
      </trkpt>
    </trkseg>
  </trk>
</gpx>